<?xml version="1.0" encoding="UTF-8" standalone="no" ?>
<gpx xmlns="http://www.topografix.com/GPX/1/1" xmlns:xsi="http://www.w3.org/2001/XMLSchema-instance" xsi:schemaLocation="http://www.topografix.com/GPX/1/1 http://www.topografix.com/GPX/1/1/gpx.xsd" version="1.1" creator="VisuGPX - https://www.visugpx.com">
  <metadata>
    <name>RSPFY-poteau-Poterie-poteau-des-Bruyères</name>
    <desc><![CDATA[marche nordique dans le bois de Rochefort en partant du poteau de la Poterie et passant par le poteau des Bruyères et la Fontaine Sainte-Anne.]]></desc>
  </metadata>
  <trk>
    <name><![CDATA[2022-10-27 08:58]]></name>
    <desc><![CDATA[<p>Heure de départ: 08:58 27 oct. 2022<br/>Heure d'arrivée: 11:34 27 oct. 2022<br/>Distance: 11,9 km (02:35)<br/>Temps déplacement: 02:14<br/>Vitesse moyenne: 4,59 km/h<br/>Vitesse moyenne mouv.: 5,32 km/h<br/>Vitesse Max.: 7,73 km/h<br/>Altitude minimale: 102 m<br/>Altitude maximale: 193 m<br/>Vitesse de montée: 261,8 m/h<br/>Vitesse de descente: -283,1 m/h<br/>Gain d'altitude: 345 m<br/>Perte d'altitude: -352 m<br/>Temps de montée: 01:19<br/>Temps de descente: 01:14<br/></p><hr align="center" width="480" style="height: 2px; width: 517px"/>]]></desc>
    <trkseg>
      <trkpt lat="48.60697" lon="1.94931">
        <ele>111.5</ele>
        <time>2022-10-27T06:58:58Z</time>
      </trkpt>
      <trkpt lat="48.60705" lon="1.94923">
        <ele>111.8</ele>
        <time>2022-10-27T06:59:08Z</time>
      </trkpt>
      <trkpt lat="48.60708" lon="1.94909">
        <ele>112</ele>
        <time>2022-10-27T06:59:15Z</time>
      </trkpt>
      <trkpt lat="48.6071" lon="1.94896">
        <ele>112</ele>
        <time>2022-10-27T06:59:22Z</time>
      </trkpt>
      <trkpt lat="48.60715" lon="1.94882">
        <ele>112.2</ele>
        <time>2022-10-27T06:59:30Z</time>
      </trkpt>
      <trkpt lat="48.60719" lon="1.94869">
        <ele>112.7</ele>
        <time>2022-10-27T06:59:38Z</time>
      </trkpt>
      <trkpt lat="48.60722" lon="1.94856">
        <ele>113</ele>
        <time>2022-10-27T06:59:45Z</time>
      </trkpt>
      <trkpt lat="48.60729" lon="1.94845">
        <ele>112.9</ele>
        <time>2022-10-27T06:59:53Z</time>
      </trkpt>
      <trkpt lat="48.60736" lon="1.94836">
        <ele>112.9</ele>
        <time>2022-10-27T07:00:00Z</time>
      </trkpt>
      <trkpt lat="48.60744" lon="1.94827">
        <ele>113</ele>
        <time>2022-10-27T07:00:08Z</time>
      </trkpt>
      <trkpt lat="48.60749" lon="1.94814">
        <ele>113</ele>
        <time>2022-10-27T07:00:15Z</time>
      </trkpt>
      <trkpt lat="48.60757" lon="1.94807">
        <ele>112.7</ele>
        <time>2022-10-27T07:00:22Z</time>
      </trkpt>
      <trkpt lat="48.60763" lon="1.94794">
        <ele>112.5</ele>
        <time>2022-10-27T07:00:28Z</time>
      </trkpt>
      <trkpt lat="48.60769" lon="1.94782">
        <ele>112.3</ele>
        <time>2022-10-27T07:00:33Z</time>
      </trkpt>
      <trkpt lat="48.60774" lon="1.94768">
        <ele>112.2</ele>
        <time>2022-10-27T07:00:40Z</time>
      </trkpt>
      <trkpt lat="48.60779" lon="1.94755">
        <ele>112</ele>
        <time>2022-10-27T07:00:47Z</time>
      </trkpt>
      <trkpt lat="48.60783" lon="1.94743">
        <ele>112.3</ele>
        <time>2022-10-27T07:00:53Z</time>
      </trkpt>
      <trkpt lat="48.60789" lon="1.94731">
        <ele>112.7</ele>
        <time>2022-10-27T07:01:00Z</time>
      </trkpt>
      <trkpt lat="48.60795" lon="1.94719">
        <ele>113.1</ele>
        <time>2022-10-27T07:01:07Z</time>
      </trkpt>
      <trkpt lat="48.60802" lon="1.94708">
        <ele>113.5</ele>
        <time>2022-10-27T07:01:14Z</time>
      </trkpt>
      <trkpt lat="48.60807" lon="1.94694">
        <ele>114</ele>
        <time>2022-10-27T07:01:20Z</time>
      </trkpt>
      <trkpt lat="48.60813" lon="1.94683">
        <ele>113.9</ele>
        <time>2022-10-27T07:01:28Z</time>
      </trkpt>
      <trkpt lat="48.60817" lon="1.94668">
        <ele>114</ele>
        <time>2022-10-27T07:01:36Z</time>
      </trkpt>
      <trkpt lat="48.60821" lon="1.94656">
        <ele>114.4</ele>
        <time>2022-10-27T07:01:42Z</time>
      </trkpt>
      <trkpt lat="48.60826" lon="1.94643">
        <ele>114.9</ele>
        <time>2022-10-27T07:01:49Z</time>
      </trkpt>
      <trkpt lat="48.60833" lon="1.94632">
        <ele>115</ele>
        <time>2022-10-27T07:01:56Z</time>
      </trkpt>
      <trkpt lat="48.6084" lon="1.9462">
        <ele>115</ele>
        <time>2022-10-27T07:02:02Z</time>
      </trkpt>
      <trkpt lat="48.60845" lon="1.94608">
        <ele>115.1</ele>
        <time>2022-10-27T07:02:09Z</time>
      </trkpt>
      <trkpt lat="48.60852" lon="1.946">
        <ele>115.4</ele>
        <time>2022-10-27T07:02:16Z</time>
      </trkpt>
      <trkpt lat="48.60859" lon="1.94588">
        <ele>115.8</ele>
        <time>2022-10-27T07:02:23Z</time>
      </trkpt>
      <trkpt lat="48.60864" lon="1.94575">
        <ele>116</ele>
        <time>2022-10-27T07:02:30Z</time>
      </trkpt>
      <trkpt lat="48.60871" lon="1.94564">
        <ele>116</ele>
        <time>2022-10-27T07:02:38Z</time>
      </trkpt>
      <trkpt lat="48.60878" lon="1.94554">
        <ele>116</ele>
        <time>2022-10-27T07:02:46Z</time>
      </trkpt>
      <trkpt lat="48.60883" lon="1.94542">
        <ele>116</ele>
        <time>2022-10-27T07:02:52Z</time>
      </trkpt>
      <trkpt lat="48.60887" lon="1.94529">
        <ele>116</ele>
        <time>2022-10-27T07:02:58Z</time>
      </trkpt>
      <trkpt lat="48.60893" lon="1.94517">
        <ele>115.9</ele>
        <time>2022-10-27T07:03:06Z</time>
      </trkpt>
      <trkpt lat="48.60896" lon="1.94502">
        <ele>115.8</ele>
        <time>2022-10-27T07:03:13Z</time>
      </trkpt>
      <trkpt lat="48.60904" lon="1.94491">
        <ele>115.6</ele>
        <time>2022-10-27T07:03:19Z</time>
      </trkpt>
      <trkpt lat="48.60911" lon="1.94479">
        <ele>115.8</ele>
        <time>2022-10-27T07:03:25Z</time>
      </trkpt>
      <trkpt lat="48.60917" lon="1.94469">
        <ele>116</ele>
        <time>2022-10-27T07:03:31Z</time>
      </trkpt>
      <trkpt lat="48.60921" lon="1.94455">
        <ele>116.1</ele>
        <time>2022-10-27T07:03:39Z</time>
      </trkpt>
      <trkpt lat="48.60926" lon="1.94441">
        <ele>116.4</ele>
        <time>2022-10-27T07:03:47Z</time>
      </trkpt>
      <trkpt lat="48.60933" lon="1.94429">
        <ele>116.8</ele>
        <time>2022-10-27T07:03:53Z</time>
      </trkpt>
      <trkpt lat="48.60941" lon="1.94422">
        <ele>117</ele>
        <time>2022-10-27T07:03:59Z</time>
      </trkpt>
      <trkpt lat="48.60948" lon="1.9441">
        <ele>117</ele>
        <time>2022-10-27T07:04:06Z</time>
      </trkpt>
      <trkpt lat="48.60954" lon="1.94399">
        <ele>117</ele>
        <time>2022-10-27T07:04:14Z</time>
      </trkpt>
      <trkpt lat="48.60961" lon="1.94389">
        <ele>117</ele>
        <time>2022-10-27T07:04:21Z</time>
      </trkpt>
      <trkpt lat="48.60967" lon="1.94377">
        <ele>117</ele>
        <time>2022-10-27T07:04:28Z</time>
      </trkpt>
      <trkpt lat="48.60973" lon="1.94364">
        <ele>117</ele>
        <time>2022-10-27T07:04:35Z</time>
      </trkpt>
      <trkpt lat="48.60979" lon="1.94354">
        <ele>117</ele>
        <time>2022-10-27T07:04:43Z</time>
      </trkpt>
      <trkpt lat="48.60985" lon="1.9434">
        <ele>117</ele>
        <time>2022-10-27T07:04:50Z</time>
      </trkpt>
      <trkpt lat="48.6099" lon="1.94326">
        <ele>117.1</ele>
        <time>2022-10-27T07:04:57Z</time>
      </trkpt>
      <trkpt lat="48.60996" lon="1.94316">
        <ele>117.1</ele>
        <time>2022-10-27T07:05:03Z</time>
      </trkpt>
      <trkpt lat="48.61002" lon="1.94304">
        <ele>117</ele>
        <time>2022-10-27T07:05:09Z</time>
      </trkpt>
      <trkpt lat="48.61005" lon="1.9429">
        <ele>117</ele>
        <time>2022-10-27T07:05:16Z</time>
      </trkpt>
      <trkpt lat="48.61012" lon="1.94279">
        <ele>117</ele>
        <time>2022-10-27T07:05:23Z</time>
      </trkpt>
      <trkpt lat="48.61018" lon="1.94267">
        <ele>117.1</ele>
        <time>2022-10-27T07:05:29Z</time>
      </trkpt>
      <trkpt lat="48.61028" lon="1.94259">
        <ele>117</ele>
        <time>2022-10-27T07:05:34Z</time>
      </trkpt>
      <trkpt lat="48.61035" lon="1.94248">
        <ele>117</ele>
        <time>2022-10-27T07:05:40Z</time>
      </trkpt>
      <trkpt lat="48.6104" lon="1.94235">
        <ele>117</ele>
        <time>2022-10-27T07:05:47Z</time>
      </trkpt>
      <trkpt lat="48.61044" lon="1.94221">
        <ele>117</ele>
        <time>2022-10-27T07:05:55Z</time>
      </trkpt>
      <trkpt lat="48.61045" lon="1.94206">
        <ele>117.2</ele>
        <time>2022-10-27T07:06:04Z</time>
      </trkpt>
      <trkpt lat="48.61051" lon="1.94195">
        <ele>117.1</ele>
        <time>2022-10-27T07:06:12Z</time>
      </trkpt>
      <trkpt lat="48.61058" lon="1.94184">
        <ele>117.4</ele>
        <time>2022-10-27T07:06:21Z</time>
      </trkpt>
      <trkpt lat="48.61064" lon="1.94172">
        <ele>117.9</ele>
        <time>2022-10-27T07:06:28Z</time>
      </trkpt>
      <trkpt lat="48.6107" lon="1.94159">
        <ele>118.1</ele>
        <time>2022-10-27T07:06:35Z</time>
      </trkpt>
      <trkpt lat="48.61076" lon="1.94148">
        <ele>118.5</ele>
        <time>2022-10-27T07:06:42Z</time>
      </trkpt>
      <trkpt lat="48.61081" lon="1.94136">
        <ele>118.9</ele>
        <time>2022-10-27T07:06:50Z</time>
      </trkpt>
      <trkpt lat="48.61087" lon="1.94124">
        <ele>119.1</ele>
        <time>2022-10-27T07:06:57Z</time>
      </trkpt>
      <trkpt lat="48.61094" lon="1.94114">
        <ele>119.4</ele>
        <time>2022-10-27T07:07:04Z</time>
      </trkpt>
      <trkpt lat="48.61101" lon="1.94103">
        <ele>119.6</ele>
        <time>2022-10-27T07:07:11Z</time>
      </trkpt>
      <trkpt lat="48.61102" lon="1.94088">
        <ele>119.7</ele>
        <time>2022-10-27T07:07:18Z</time>
      </trkpt>
      <trkpt lat="48.61107" lon="1.94074">
        <ele>119.9</ele>
        <time>2022-10-27T07:07:25Z</time>
      </trkpt>
      <trkpt lat="48.61111" lon="1.94061">
        <ele>120</ele>
        <time>2022-10-27T07:07:32Z</time>
      </trkpt>
      <trkpt lat="48.61116" lon="1.94049">
        <ele>120.2</ele>
        <time>2022-10-27T07:07:39Z</time>
      </trkpt>
      <trkpt lat="48.61122" lon="1.94037">
        <ele>120.4</ele>
        <time>2022-10-27T07:07:47Z</time>
      </trkpt>
      <trkpt lat="48.61129" lon="1.94026">
        <ele>120.6</ele>
        <time>2022-10-27T07:07:53Z</time>
      </trkpt>
      <trkpt lat="48.61135" lon="1.94017">
        <ele>120.9</ele>
        <time>2022-10-27T07:08:00Z</time>
      </trkpt>
      <trkpt lat="48.61141" lon="1.94006">
        <ele>121.1</ele>
        <time>2022-10-27T07:08:06Z</time>
      </trkpt>
      <trkpt lat="48.61147" lon="1.93994">
        <ele>121.5</ele>
        <time>2022-10-27T07:08:12Z</time>
      </trkpt>
      <trkpt lat="48.61153" lon="1.93983">
        <ele>121.7</ele>
        <time>2022-10-27T07:08:18Z</time>
      </trkpt>
      <trkpt lat="48.61157" lon="1.9397">
        <ele>121.6</ele>
        <time>2022-10-27T07:08:26Z</time>
      </trkpt>
      <trkpt lat="48.61162" lon="1.93957">
        <ele>121.8</ele>
        <time>2022-10-27T07:08:33Z</time>
      </trkpt>
      <trkpt lat="48.61165" lon="1.93944">
        <ele>121.9</ele>
        <time>2022-10-27T07:08:39Z</time>
      </trkpt>
      <trkpt lat="48.61171" lon="1.93933">
        <ele>122.5</ele>
        <time>2022-10-27T07:08:46Z</time>
      </trkpt>
      <trkpt lat="48.61173" lon="1.93917">
        <ele>122.7</ele>
        <time>2022-10-27T07:08:53Z</time>
      </trkpt>
      <trkpt lat="48.61171" lon="1.93932">
        <ele>122.4</ele>
        <time>2022-10-27T07:09:10Z</time>
      </trkpt>
      <trkpt lat="48.61168" lon="1.93947">
        <ele>122.2</ele>
        <time>2022-10-27T07:09:18Z</time>
      </trkpt>
      <trkpt lat="48.61164" lon="1.93959">
        <ele>121.9</ele>
        <time>2022-10-27T07:09:25Z</time>
      </trkpt>
      <trkpt lat="48.61159" lon="1.9397">
        <ele>121.7</ele>
        <time>2022-10-27T07:09:31Z</time>
      </trkpt>
      <trkpt lat="48.61156" lon="1.93983">
        <ele>121.8</ele>
        <time>2022-10-27T07:09:38Z</time>
      </trkpt>
      <trkpt lat="48.61152" lon="1.93996">
        <ele>121.9</ele>
        <time>2022-10-27T07:09:45Z</time>
      </trkpt>
      <trkpt lat="48.61145" lon="1.94007">
        <ele>121.4</ele>
        <time>2022-10-27T07:09:52Z</time>
      </trkpt>
      <trkpt lat="48.61139" lon="1.94018">
        <ele>121</ele>
        <time>2022-10-27T07:10:00Z</time>
      </trkpt>
      <trkpt lat="48.61133" lon="1.94028">
        <ele>120.8</ele>
        <time>2022-10-27T07:10:06Z</time>
      </trkpt>
      <trkpt lat="48.61126" lon="1.94038">
        <ele>120.5</ele>
        <time>2022-10-27T07:10:12Z</time>
      </trkpt>
      <trkpt lat="48.6112" lon="1.9405">
        <ele>120.3</ele>
        <time>2022-10-27T07:10:19Z</time>
      </trkpt>
      <trkpt lat="48.61115" lon="1.94062">
        <ele>120.1</ele>
        <time>2022-10-27T07:10:28Z</time>
      </trkpt>
      <trkpt lat="48.61105" lon="1.94064">
        <ele>119.9</ele>
        <time>2022-10-27T07:10:42Z</time>
      </trkpt>
      <trkpt lat="48.61099" lon="1.94053">
        <ele>120</ele>
        <time>2022-10-27T07:10:51Z</time>
      </trkpt>
      <trkpt lat="48.61092" lon="1.94041">
        <ele>120</ele>
        <time>2022-10-27T07:11:00Z</time>
      </trkpt>
      <trkpt lat="48.61085" lon="1.94032">
        <ele>120</ele>
        <time>2022-10-27T07:11:06Z</time>
      </trkpt>
      <trkpt lat="48.61078" lon="1.94022">
        <ele>120.2</ele>
        <time>2022-10-27T07:11:12Z</time>
      </trkpt>
      <trkpt lat="48.61071" lon="1.94011">
        <ele>120.5</ele>
        <time>2022-10-27T07:11:19Z</time>
      </trkpt>
      <trkpt lat="48.61065" lon="1.94">
        <ele>120.7</ele>
        <time>2022-10-27T07:11:27Z</time>
      </trkpt>
      <trkpt lat="48.6106" lon="1.93988">
        <ele>120.5</ele>
        <time>2022-10-27T07:11:34Z</time>
      </trkpt>
      <trkpt lat="48.61053" lon="1.93976">
        <ele>120.1</ele>
        <time>2022-10-27T07:11:40Z</time>
      </trkpt>
      <trkpt lat="48.61046" lon="1.93968">
        <ele>120</ele>
        <time>2022-10-27T07:11:48Z</time>
      </trkpt>
      <trkpt lat="48.61042" lon="1.93954">
        <ele>120</ele>
        <time>2022-10-27T07:11:55Z</time>
      </trkpt>
      <trkpt lat="48.6104" lon="1.93941">
        <ele>120</ele>
        <time>2022-10-27T07:12:00Z</time>
      </trkpt>
      <trkpt lat="48.61042" lon="1.93927">
        <ele>120</ele>
        <time>2022-10-27T07:12:10Z</time>
      </trkpt>
      <trkpt lat="48.61048" lon="1.93913">
        <ele>120</ele>
        <time>2022-10-27T07:12:19Z</time>
      </trkpt>
      <trkpt lat="48.61048" lon="1.93898">
        <ele>120</ele>
        <time>2022-10-27T07:12:25Z</time>
      </trkpt>
      <trkpt lat="48.61043" lon="1.93883">
        <ele>120</ele>
        <time>2022-10-27T07:12:31Z</time>
      </trkpt>
      <trkpt lat="48.61038" lon="1.93871">
        <ele>120</ele>
        <time>2022-10-27T07:12:38Z</time>
      </trkpt>
      <trkpt lat="48.61037" lon="1.93857">
        <ele>120</ele>
        <time>2022-10-27T07:12:45Z</time>
      </trkpt>
      <trkpt lat="48.61035" lon="1.93843">
        <ele>120</ele>
        <time>2022-10-27T07:12:53Z</time>
      </trkpt>
      <trkpt lat="48.61033" lon="1.93828">
        <ele>120</ele>
        <time>2022-10-27T07:13:01Z</time>
      </trkpt>
      <trkpt lat="48.61033" lon="1.93814">
        <ele>120</ele>
        <time>2022-10-27T07:13:07Z</time>
      </trkpt>
      <trkpt lat="48.61035" lon="1.938">
        <ele>119.9</ele>
        <time>2022-10-27T07:13:17Z</time>
      </trkpt>
      <trkpt lat="48.61037" lon="1.93784">
        <ele>119.5</ele>
        <time>2022-10-27T07:13:32Z</time>
      </trkpt>
      <trkpt lat="48.61039" lon="1.93769">
        <ele>119.3</ele>
        <time>2022-10-27T07:13:39Z</time>
      </trkpt>
      <trkpt lat="48.61037" lon="1.93753">
        <ele>119</ele>
        <time>2022-10-27T07:13:44Z</time>
      </trkpt>
      <trkpt lat="48.61035" lon="1.93739">
        <ele>119</ele>
        <time>2022-10-27T07:13:51Z</time>
      </trkpt>
      <trkpt lat="48.61031" lon="1.93724">
        <ele>119</ele>
        <time>2022-10-27T07:13:57Z</time>
      </trkpt>
      <trkpt lat="48.6103" lon="1.9371">
        <ele>119</ele>
        <time>2022-10-27T07:14:04Z</time>
      </trkpt>
      <trkpt lat="48.6103" lon="1.93696">
        <ele>119</ele>
        <time>2022-10-27T07:14:11Z</time>
      </trkpt>
      <trkpt lat="48.61032" lon="1.93681">
        <ele>119.5</ele>
        <time>2022-10-27T07:14:18Z</time>
      </trkpt>
      <trkpt lat="48.61036" lon="1.93668">
        <ele>119.9</ele>
        <time>2022-10-27T07:14:25Z</time>
      </trkpt>
      <trkpt lat="48.61039" lon="1.93655">
        <ele>120</ele>
        <time>2022-10-27T07:14:33Z</time>
      </trkpt>
      <trkpt lat="48.61042" lon="1.93641">
        <ele>120</ele>
        <time>2022-10-27T07:14:41Z</time>
      </trkpt>
      <trkpt lat="48.61047" lon="1.93628">
        <ele>120.4</ele>
        <time>2022-10-27T07:14:48Z</time>
      </trkpt>
      <trkpt lat="48.61048" lon="1.93613">
        <ele>120.9</ele>
        <time>2022-10-27T07:14:54Z</time>
      </trkpt>
      <trkpt lat="48.61053" lon="1.93601">
        <ele>121.3</ele>
        <time>2022-10-27T07:15:01Z</time>
      </trkpt>
      <trkpt lat="48.61054" lon="1.93587">
        <ele>121.8</ele>
        <time>2022-10-27T07:15:07Z</time>
      </trkpt>
      <trkpt lat="48.61057" lon="1.93574">
        <ele>122.3</ele>
        <time>2022-10-27T07:15:21Z</time>
      </trkpt>
      <trkpt lat="48.61052" lon="1.93563">
        <ele>122.6</ele>
        <time>2022-10-27T07:15:35Z</time>
      </trkpt>
      <trkpt lat="48.61045" lon="1.93553">
        <ele>122.7</ele>
        <time>2022-10-27T07:15:45Z</time>
      </trkpt>
      <trkpt lat="48.61037" lon="1.93546">
        <ele>122.7</ele>
        <time>2022-10-27T07:15:54Z</time>
      </trkpt>
      <trkpt lat="48.61029" lon="1.93535">
        <ele>122.8</ele>
        <time>2022-10-27T07:16:01Z</time>
      </trkpt>
      <trkpt lat="48.61022" lon="1.93526">
        <ele>123.1</ele>
        <time>2022-10-27T07:16:07Z</time>
      </trkpt>
      <trkpt lat="48.61019" lon="1.93511">
        <ele>124</ele>
        <time>2022-10-27T07:16:15Z</time>
      </trkpt>
      <trkpt lat="48.61022" lon="1.93497">
        <ele>125</ele>
        <time>2022-10-27T07:16:22Z</time>
      </trkpt>
      <trkpt lat="48.61026" lon="1.93484">
        <ele>126.1</ele>
        <time>2022-10-27T07:16:29Z</time>
      </trkpt>
      <trkpt lat="48.61029" lon="1.9347">
        <ele>127.3</ele>
        <time>2022-10-27T07:16:37Z</time>
      </trkpt>
      <trkpt lat="48.61032" lon="1.93457">
        <ele>128.8</ele>
        <time>2022-10-27T07:16:45Z</time>
      </trkpt>
      <trkpt lat="48.61035" lon="1.93444">
        <ele>130.3</ele>
        <time>2022-10-27T07:16:52Z</time>
      </trkpt>
      <trkpt lat="48.61038" lon="1.93429">
        <ele>131.1</ele>
        <time>2022-10-27T07:16:59Z</time>
      </trkpt>
      <trkpt lat="48.61041" lon="1.93414">
        <ele>132.1</ele>
        <time>2022-10-27T07:17:06Z</time>
      </trkpt>
      <trkpt lat="48.61046" lon="1.93401">
        <ele>133.3</ele>
        <time>2022-10-27T07:17:14Z</time>
      </trkpt>
      <trkpt lat="48.6105" lon="1.93388">
        <ele>134.5</ele>
        <time>2022-10-27T07:17:20Z</time>
      </trkpt>
      <trkpt lat="48.61051" lon="1.93372">
        <ele>135.2</ele>
        <time>2022-10-27T07:17:27Z</time>
      </trkpt>
      <trkpt lat="48.61056" lon="1.93359">
        <ele>136.2</ele>
        <time>2022-10-27T07:17:35Z</time>
      </trkpt>
      <trkpt lat="48.61064" lon="1.93349">
        <ele>136.8</ele>
        <time>2022-10-27T07:17:44Z</time>
      </trkpt>
      <trkpt lat="48.61072" lon="1.93341">
        <ele>137.4</ele>
        <time>2022-10-27T07:17:52Z</time>
      </trkpt>
      <trkpt lat="48.61082" lon="1.9334">
        <ele>137.5</ele>
        <time>2022-10-27T07:17:59Z</time>
      </trkpt>
      <trkpt lat="48.61091" lon="1.93337">
        <ele>136.6</ele>
        <time>2022-10-27T07:18:08Z</time>
      </trkpt>
      <trkpt lat="48.611" lon="1.93334">
        <ele>135.5</ele>
        <time>2022-10-27T07:18:14Z</time>
      </trkpt>
      <trkpt lat="48.61109" lon="1.93328">
        <ele>134.6</ele>
        <time>2022-10-27T07:18:24Z</time>
      </trkpt>
      <trkpt lat="48.61119" lon="1.93325">
        <ele>133.4</ele>
        <time>2022-10-27T07:18:30Z</time>
      </trkpt>
      <trkpt lat="48.61129" lon="1.93324">
        <ele>132.1</ele>
        <time>2022-10-27T07:18:36Z</time>
      </trkpt>
      <trkpt lat="48.61138" lon="1.93319">
        <ele>131.2</ele>
        <time>2022-10-27T07:18:43Z</time>
      </trkpt>
      <trkpt lat="48.61147" lon="1.93314">
        <ele>131.3</ele>
        <time>2022-10-27T07:18:49Z</time>
      </trkpt>
      <trkpt lat="48.61157" lon="1.93308">
        <ele>131.7</ele>
        <time>2022-10-27T07:18:55Z</time>
      </trkpt>
      <trkpt lat="48.61167" lon="1.93305">
        <ele>132.1</ele>
        <time>2022-10-27T07:19:00Z</time>
      </trkpt>
      <trkpt lat="48.61176" lon="1.933">
        <ele>132.7</ele>
        <time>2022-10-27T07:19:07Z</time>
      </trkpt>
      <trkpt lat="48.61186" lon="1.93297">
        <ele>133</ele>
        <time>2022-10-27T07:19:14Z</time>
      </trkpt>
      <trkpt lat="48.61195" lon="1.93296">
        <ele>133.1</ele>
        <time>2022-10-27T07:19:22Z</time>
      </trkpt>
      <trkpt lat="48.61205" lon="1.93297">
        <ele>133.1</ele>
        <time>2022-10-27T07:19:31Z</time>
      </trkpt>
      <trkpt lat="48.61214" lon="1.93305">
        <ele>132.8</ele>
        <time>2022-10-27T07:19:36Z</time>
      </trkpt>
      <trkpt lat="48.61222" lon="1.93312">
        <ele>132.8</ele>
        <time>2022-10-27T07:19:41Z</time>
      </trkpt>
      <trkpt lat="48.6123" lon="1.93318">
        <ele>133.6</ele>
        <time>2022-10-27T07:19:47Z</time>
      </trkpt>
      <trkpt lat="48.61239" lon="1.93325">
        <ele>134.6</ele>
        <time>2022-10-27T07:19:53Z</time>
      </trkpt>
      <trkpt lat="48.61248" lon="1.93333">
        <ele>135.6</ele>
        <time>2022-10-27T07:19:59Z</time>
      </trkpt>
      <trkpt lat="48.61256" lon="1.9334">
        <ele>135.9</ele>
        <time>2022-10-27T07:20:05Z</time>
      </trkpt>
      <trkpt lat="48.61265" lon="1.93349">
        <ele>136</ele>
        <time>2022-10-27T07:20:11Z</time>
      </trkpt>
      <trkpt lat="48.61273" lon="1.93358">
        <ele>135.9</ele>
        <time>2022-10-27T07:20:18Z</time>
      </trkpt>
      <trkpt lat="48.6128" lon="1.93369">
        <ele>135.8</ele>
        <time>2022-10-27T07:20:25Z</time>
      </trkpt>
      <trkpt lat="48.61287" lon="1.93378">
        <ele>135.7</ele>
        <time>2022-10-27T07:20:35Z</time>
      </trkpt>
      <trkpt lat="48.61296" lon="1.93384">
        <ele>135.8</ele>
        <time>2022-10-27T07:20:43Z</time>
      </trkpt>
      <trkpt lat="48.61306" lon="1.93383">
        <ele>136.2</ele>
        <time>2022-10-27T07:20:49Z</time>
      </trkpt>
      <trkpt lat="48.61311" lon="1.93371">
        <ele>136.8</ele>
        <time>2022-10-27T07:20:55Z</time>
      </trkpt>
      <trkpt lat="48.61316" lon="1.93358">
        <ele>137.5</ele>
        <time>2022-10-27T07:21:05Z</time>
      </trkpt>
      <trkpt lat="48.6132" lon="1.93345">
        <ele>138.4</ele>
        <time>2022-10-27T07:21:20Z</time>
      </trkpt>
      <trkpt lat="48.61325" lon="1.93331">
        <ele>139.5</ele>
        <time>2022-10-27T07:21:28Z</time>
      </trkpt>
      <trkpt lat="48.61328" lon="1.93317">
        <ele>140.2</ele>
        <time>2022-10-27T07:21:35Z</time>
      </trkpt>
      <trkpt lat="48.61331" lon="1.93304">
        <ele>140.8</ele>
        <time>2022-10-27T07:21:41Z</time>
      </trkpt>
      <trkpt lat="48.61333" lon="1.9329">
        <ele>141.6</ele>
        <time>2022-10-27T07:21:53Z</time>
      </trkpt>
      <trkpt lat="48.61336" lon="1.93276">
        <ele>142.4</ele>
        <time>2022-10-27T07:22:01Z</time>
      </trkpt>
      <trkpt lat="48.61341" lon="1.93264">
        <ele>143.4</ele>
        <time>2022-10-27T07:22:09Z</time>
      </trkpt>
      <trkpt lat="48.61347" lon="1.93251">
        <ele>144.4</ele>
        <time>2022-10-27T07:22:17Z</time>
      </trkpt>
      <trkpt lat="48.61351" lon="1.93239">
        <ele>145.4</ele>
        <time>2022-10-27T07:22:24Z</time>
      </trkpt>
      <trkpt lat="48.61355" lon="1.93226">
        <ele>146.7</ele>
        <time>2022-10-27T07:22:31Z</time>
      </trkpt>
      <trkpt lat="48.6136" lon="1.93213">
        <ele>148.2</ele>
        <time>2022-10-27T07:22:38Z</time>
      </trkpt>
      <trkpt lat="48.61366" lon="1.93202">
        <ele>149.2</ele>
        <time>2022-10-27T07:22:45Z</time>
      </trkpt>
      <trkpt lat="48.61373" lon="1.93191">
        <ele>150.3</ele>
        <time>2022-10-27T07:22:52Z</time>
      </trkpt>
      <trkpt lat="48.61376" lon="1.93177">
        <ele>151.2</ele>
        <time>2022-10-27T07:22:59Z</time>
      </trkpt>
      <trkpt lat="48.61382" lon="1.93166">
        <ele>152.8</ele>
        <time>2022-10-27T07:23:06Z</time>
      </trkpt>
      <trkpt lat="48.61391" lon="1.93159">
        <ele>154.3</ele>
        <time>2022-10-27T07:23:13Z</time>
      </trkpt>
      <trkpt lat="48.61398" lon="1.93149">
        <ele>155.6</ele>
        <time>2022-10-27T07:23:21Z</time>
      </trkpt>
      <trkpt lat="48.61406" lon="1.93141">
        <ele>157</ele>
        <time>2022-10-27T07:23:28Z</time>
      </trkpt>
      <trkpt lat="48.61415" lon="1.93137">
        <ele>158.7</ele>
        <time>2022-10-27T07:23:37Z</time>
      </trkpt>
      <trkpt lat="48.61423" lon="1.93128">
        <ele>160</ele>
        <time>2022-10-27T07:23:46Z</time>
      </trkpt>
      <trkpt lat="48.6143" lon="1.93118">
        <ele>161.6</ele>
        <time>2022-10-27T07:23:53Z</time>
      </trkpt>
      <trkpt lat="48.61438" lon="1.93108">
        <ele>163.3</ele>
        <time>2022-10-27T07:24:01Z</time>
      </trkpt>
      <trkpt lat="48.61445" lon="1.93098">
        <ele>165</ele>
        <time>2022-10-27T07:24:10Z</time>
      </trkpt>
      <trkpt lat="48.61452" lon="1.93089">
        <ele>166.3</ele>
        <time>2022-10-27T07:24:18Z</time>
      </trkpt>
      <trkpt lat="48.61459" lon="1.93078">
        <ele>167.8</ele>
        <time>2022-10-27T07:24:26Z</time>
      </trkpt>
      <trkpt lat="48.61467" lon="1.9307">
        <ele>169.1</ele>
        <time>2022-10-27T07:24:33Z</time>
      </trkpt>
      <trkpt lat="48.61476" lon="1.93063">
        <ele>170.1</ele>
        <time>2022-10-27T07:24:41Z</time>
      </trkpt>
      <trkpt lat="48.61484" lon="1.93058">
        <ele>170.4</ele>
        <time>2022-10-27T07:24:49Z</time>
      </trkpt>
      <trkpt lat="48.61492" lon="1.93051">
        <ele>170.6</ele>
        <time>2022-10-27T07:25:28Z</time>
      </trkpt>
      <trkpt lat="48.61499" lon="1.93042">
        <ele>170.5</ele>
        <time>2022-10-27T07:28:13Z</time>
      </trkpt>
      <trkpt lat="48.61506" lon="1.93033">
        <ele>170.4</ele>
        <time>2022-10-27T07:28:21Z</time>
      </trkpt>
      <trkpt lat="48.61514" lon="1.93025">
        <ele>170.5</ele>
        <time>2022-10-27T07:28:31Z</time>
      </trkpt>
      <trkpt lat="48.61523" lon="1.93019">
        <ele>170.8</ele>
        <time>2022-10-27T07:28:38Z</time>
      </trkpt>
      <trkpt lat="48.61532" lon="1.93014">
        <ele>171.1</ele>
        <time>2022-10-27T07:28:48Z</time>
      </trkpt>
      <trkpt lat="48.61539" lon="1.93005">
        <ele>171.4</ele>
        <time>2022-10-27T07:28:56Z</time>
      </trkpt>
      <trkpt lat="48.61547" lon="1.92998">
        <ele>171.7</ele>
        <time>2022-10-27T07:29:02Z</time>
      </trkpt>
      <trkpt lat="48.61555" lon="1.92989">
        <ele>172</ele>
        <time>2022-10-27T07:29:09Z</time>
      </trkpt>
      <trkpt lat="48.61564" lon="1.92983">
        <ele>172</ele>
        <time>2022-10-27T07:29:15Z</time>
      </trkpt>
      <trkpt lat="48.61573" lon="1.92979">
        <ele>172</ele>
        <time>2022-10-27T07:29:22Z</time>
      </trkpt>
      <trkpt lat="48.61582" lon="1.92974">
        <ele>172</ele>
        <time>2022-10-27T07:29:29Z</time>
      </trkpt>
      <trkpt lat="48.61591" lon="1.92968">
        <ele>172.1</ele>
        <time>2022-10-27T07:29:37Z</time>
      </trkpt>
      <trkpt lat="48.61599" lon="1.92961">
        <ele>172.4</ele>
        <time>2022-10-27T07:29:44Z</time>
      </trkpt>
      <trkpt lat="48.61609" lon="1.92955">
        <ele>172.6</ele>
        <time>2022-10-27T07:29:51Z</time>
      </trkpt>
      <trkpt lat="48.61617" lon="1.92948">
        <ele>172.9</ele>
        <time>2022-10-27T07:29:58Z</time>
      </trkpt>
      <trkpt lat="48.61627" lon="1.92943">
        <ele>173</ele>
        <time>2022-10-27T07:30:06Z</time>
      </trkpt>
      <trkpt lat="48.61636" lon="1.92942">
        <ele>173</ele>
        <time>2022-10-27T07:30:14Z</time>
      </trkpt>
      <trkpt lat="48.61644" lon="1.9295">
        <ele>172.8</ele>
        <time>2022-10-27T07:30:24Z</time>
      </trkpt>
      <trkpt lat="48.61652" lon="1.92957">
        <ele>172.5</ele>
        <time>2022-10-27T07:30:41Z</time>
      </trkpt>
      <trkpt lat="48.61656" lon="1.92969">
        <ele>172.1</ele>
        <time>2022-10-27T07:30:49Z</time>
      </trkpt>
      <trkpt lat="48.61662" lon="1.9298">
        <ele>172</ele>
        <time>2022-10-27T07:30:55Z</time>
      </trkpt>
      <trkpt lat="48.61667" lon="1.92991">
        <ele>172</ele>
        <time>2022-10-27T07:31:01Z</time>
      </trkpt>
      <trkpt lat="48.61667" lon="1.93005">
        <ele>172</ele>
        <time>2022-10-27T07:31:10Z</time>
      </trkpt>
      <trkpt lat="48.61669" lon="1.93019">
        <ele>172</ele>
        <time>2022-10-27T07:31:16Z</time>
      </trkpt>
      <trkpt lat="48.61671" lon="1.93034">
        <ele>172</ele>
        <time>2022-10-27T07:31:23Z</time>
      </trkpt>
      <trkpt lat="48.61671" lon="1.93049">
        <ele>172</ele>
        <time>2022-10-27T07:31:30Z</time>
      </trkpt>
      <trkpt lat="48.61673" lon="1.93064">
        <ele>172</ele>
        <time>2022-10-27T07:31:37Z</time>
      </trkpt>
      <trkpt lat="48.61677" lon="1.93078">
        <ele>172</ele>
        <time>2022-10-27T07:31:45Z</time>
      </trkpt>
      <trkpt lat="48.61682" lon="1.93091">
        <ele>172</ele>
        <time>2022-10-27T07:31:52Z</time>
      </trkpt>
      <trkpt lat="48.61683" lon="1.93105">
        <ele>172</ele>
        <time>2022-10-27T07:31:59Z</time>
      </trkpt>
      <trkpt lat="48.61684" lon="1.93118">
        <ele>171.7</ele>
        <time>2022-10-27T07:32:07Z</time>
      </trkpt>
      <trkpt lat="48.61689" lon="1.93131">
        <ele>171.3</ele>
        <time>2022-10-27T07:32:13Z</time>
      </trkpt>
      <trkpt lat="48.6169" lon="1.93145">
        <ele>171</ele>
        <time>2022-10-27T07:32:21Z</time>
      </trkpt>
      <trkpt lat="48.61692" lon="1.9316">
        <ele>171</ele>
        <time>2022-10-27T07:32:28Z</time>
      </trkpt>
      <trkpt lat="48.61694" lon="1.93174">
        <ele>171</ele>
        <time>2022-10-27T07:32:35Z</time>
      </trkpt>
      <trkpt lat="48.61692" lon="1.93188">
        <ele>171</ele>
        <time>2022-10-27T07:32:42Z</time>
      </trkpt>
      <trkpt lat="48.61693" lon="1.93204">
        <ele>171</ele>
        <time>2022-10-27T07:32:49Z</time>
      </trkpt>
      <trkpt lat="48.61693" lon="1.93218">
        <ele>171</ele>
        <time>2022-10-27T07:32:55Z</time>
      </trkpt>
      <trkpt lat="48.61694" lon="1.93232">
        <ele>171</ele>
        <time>2022-10-27T07:33:01Z</time>
      </trkpt>
      <trkpt lat="48.61694" lon="1.93247">
        <ele>171</ele>
        <time>2022-10-27T07:33:07Z</time>
      </trkpt>
      <trkpt lat="48.61693" lon="1.93262">
        <ele>170.6</ele>
        <time>2022-10-27T07:33:14Z</time>
      </trkpt>
      <trkpt lat="48.61691" lon="1.93276">
        <ele>170.1</ele>
        <time>2022-10-27T07:33:21Z</time>
      </trkpt>
      <trkpt lat="48.6169" lon="1.9329">
        <ele>170</ele>
        <time>2022-10-27T07:33:28Z</time>
      </trkpt>
      <trkpt lat="48.6169" lon="1.93304">
        <ele>170</ele>
        <time>2022-10-27T07:33:35Z</time>
      </trkpt>
      <trkpt lat="48.61688" lon="1.9332">
        <ele>170</ele>
        <time>2022-10-27T07:33:42Z</time>
      </trkpt>
      <trkpt lat="48.6169" lon="1.93335">
        <ele>170</ele>
        <time>2022-10-27T07:33:48Z</time>
      </trkpt>
      <trkpt lat="48.61691" lon="1.93348">
        <ele>169.9</ele>
        <time>2022-10-27T07:33:54Z</time>
      </trkpt>
      <trkpt lat="48.6169" lon="1.93363">
        <ele>169.8</ele>
        <time>2022-10-27T07:34:01Z</time>
      </trkpt>
      <trkpt lat="48.61687" lon="1.93377">
        <ele>169.7</ele>
        <time>2022-10-27T07:34:07Z</time>
      </trkpt>
      <trkpt lat="48.61685" lon="1.93391">
        <ele>169.6</ele>
        <time>2022-10-27T07:34:13Z</time>
      </trkpt>
      <trkpt lat="48.61685" lon="1.93406">
        <ele>169.3</ele>
        <time>2022-10-27T07:34:20Z</time>
      </trkpt>
      <trkpt lat="48.61687" lon="1.93422">
        <ele>169</ele>
        <time>2022-10-27T07:34:28Z</time>
      </trkpt>
      <trkpt lat="48.61686" lon="1.93436">
        <ele>169</ele>
        <time>2022-10-27T07:34:34Z</time>
      </trkpt>
      <trkpt lat="48.61686" lon="1.93452">
        <ele>168.9</ele>
        <time>2022-10-27T07:34:40Z</time>
      </trkpt>
      <trkpt lat="48.61685" lon="1.93466">
        <ele>168.8</ele>
        <time>2022-10-27T07:34:46Z</time>
      </trkpt>
      <trkpt lat="48.61683" lon="1.9348">
        <ele>168.6</ele>
        <time>2022-10-27T07:34:55Z</time>
      </trkpt>
      <trkpt lat="48.61679" lon="1.93495">
        <ele>168.5</ele>
        <time>2022-10-27T07:35:02Z</time>
      </trkpt>
      <trkpt lat="48.61675" lon="1.93509">
        <ele>168.2</ele>
        <time>2022-10-27T07:35:09Z</time>
      </trkpt>
      <trkpt lat="48.61672" lon="1.93523">
        <ele>168</ele>
        <time>2022-10-27T07:35:16Z</time>
      </trkpt>
      <trkpt lat="48.61671" lon="1.93538">
        <ele>168</ele>
        <time>2022-10-27T07:35:22Z</time>
      </trkpt>
      <trkpt lat="48.61672" lon="1.93553">
        <ele>168</ele>
        <time>2022-10-27T07:35:28Z</time>
      </trkpt>
      <trkpt lat="48.61665" lon="1.93563">
        <ele>168</ele>
        <time>2022-10-27T07:35:33Z</time>
      </trkpt>
      <trkpt lat="48.61659" lon="1.93575">
        <ele>167.7</ele>
        <time>2022-10-27T07:35:40Z</time>
      </trkpt>
      <trkpt lat="48.61658" lon="1.93591">
        <ele>167.5</ele>
        <time>2022-10-27T07:35:47Z</time>
      </trkpt>
      <trkpt lat="48.61654" lon="1.93604">
        <ele>167.2</ele>
        <time>2022-10-27T07:35:53Z</time>
      </trkpt>
      <trkpt lat="48.6165" lon="1.93616">
        <ele>167</ele>
        <time>2022-10-27T07:36:00Z</time>
      </trkpt>
      <trkpt lat="48.61645" lon="1.93629">
        <ele>167</ele>
        <time>2022-10-27T07:36:06Z</time>
      </trkpt>
      <trkpt lat="48.6164" lon="1.93642">
        <ele>167</ele>
        <time>2022-10-27T07:36:14Z</time>
      </trkpt>
      <trkpt lat="48.61635" lon="1.93656">
        <ele>166.9</ele>
        <time>2022-10-27T07:36:21Z</time>
      </trkpt>
      <trkpt lat="48.61629" lon="1.93667">
        <ele>166.7</ele>
        <time>2022-10-27T07:36:27Z</time>
      </trkpt>
      <trkpt lat="48.61625" lon="1.93681">
        <ele>166.5</ele>
        <time>2022-10-27T07:36:33Z</time>
      </trkpt>
      <trkpt lat="48.61621" lon="1.93694">
        <ele>166.4</ele>
        <time>2022-10-27T07:36:39Z</time>
      </trkpt>
      <trkpt lat="48.61617" lon="1.93708">
        <ele>166.1</ele>
        <time>2022-10-27T07:36:46Z</time>
      </trkpt>
      <trkpt lat="48.61608" lon="1.93716">
        <ele>165.9</ele>
        <time>2022-10-27T07:36:53Z</time>
      </trkpt>
      <trkpt lat="48.61599" lon="1.93722">
        <ele>165.6</ele>
        <time>2022-10-27T07:36:58Z</time>
      </trkpt>
      <trkpt lat="48.61591" lon="1.9373">
        <ele>165.5</ele>
        <time>2022-10-27T07:37:04Z</time>
      </trkpt>
      <trkpt lat="48.61584" lon="1.93741">
        <ele>165.7</ele>
        <time>2022-10-27T07:37:10Z</time>
      </trkpt>
      <trkpt lat="48.61578" lon="1.93753">
        <ele>165.9</ele>
        <time>2022-10-27T07:37:17Z</time>
      </trkpt>
      <trkpt lat="48.61574" lon="1.93766">
        <ele>166.2</ele>
        <time>2022-10-27T07:37:25Z</time>
      </trkpt>
      <trkpt lat="48.61568" lon="1.93778">
        <ele>166.5</ele>
        <time>2022-10-27T07:37:32Z</time>
      </trkpt>
      <trkpt lat="48.61562" lon="1.93789">
        <ele>166.6</ele>
        <time>2022-10-27T07:37:40Z</time>
      </trkpt>
      <trkpt lat="48.61555" lon="1.93798">
        <ele>166.7</ele>
        <time>2022-10-27T07:37:46Z</time>
      </trkpt>
      <trkpt lat="48.61547" lon="1.93807">
        <ele>166.7</ele>
        <time>2022-10-27T07:37:53Z</time>
      </trkpt>
      <trkpt lat="48.6154" lon="1.93816">
        <ele>166.4</ele>
        <time>2022-10-27T07:38:00Z</time>
      </trkpt>
      <trkpt lat="48.61534" lon="1.93829">
        <ele>166.2</ele>
        <time>2022-10-27T07:38:07Z</time>
      </trkpt>
      <trkpt lat="48.61528" lon="1.9384">
        <ele>166.3</ele>
        <time>2022-10-27T07:38:13Z</time>
      </trkpt>
      <trkpt lat="48.61522" lon="1.93851">
        <ele>166.2</ele>
        <time>2022-10-27T07:38:20Z</time>
      </trkpt>
      <trkpt lat="48.61516" lon="1.93862">
        <ele>166.2</ele>
        <time>2022-10-27T07:38:26Z</time>
      </trkpt>
      <trkpt lat="48.61509" lon="1.93872">
        <ele>165.9</ele>
        <time>2022-10-27T07:38:32Z</time>
      </trkpt>
      <trkpt lat="48.61503" lon="1.93885">
        <ele>166</ele>
        <time>2022-10-27T07:38:39Z</time>
      </trkpt>
      <trkpt lat="48.61497" lon="1.93897">
        <ele>165.7</ele>
        <time>2022-10-27T07:38:46Z</time>
      </trkpt>
      <trkpt lat="48.61492" lon="1.9391">
        <ele>165.4</ele>
        <time>2022-10-27T07:38:53Z</time>
      </trkpt>
      <trkpt lat="48.61488" lon="1.93923">
        <ele>165.2</ele>
        <time>2022-10-27T07:39:01Z</time>
      </trkpt>
      <trkpt lat="48.61482" lon="1.93934">
        <ele>165.1</ele>
        <time>2022-10-27T07:39:07Z</time>
      </trkpt>
      <trkpt lat="48.61477" lon="1.93946">
        <ele>165.2</ele>
        <time>2022-10-27T07:39:13Z</time>
      </trkpt>
      <trkpt lat="48.6147" lon="1.93956">
        <ele>165.3</ele>
        <time>2022-10-27T07:39:19Z</time>
      </trkpt>
      <trkpt lat="48.61464" lon="1.93967">
        <ele>165.4</ele>
        <time>2022-10-27T07:39:25Z</time>
      </trkpt>
      <trkpt lat="48.61459" lon="1.93979">
        <ele>165.5</ele>
        <time>2022-10-27T07:39:31Z</time>
      </trkpt>
      <trkpt lat="48.61454" lon="1.93992">
        <ele>165.3</ele>
        <time>2022-10-27T07:39:38Z</time>
      </trkpt>
      <trkpt lat="48.61447" lon="1.94">
        <ele>165.1</ele>
        <time>2022-10-27T07:39:49Z</time>
      </trkpt>
      <trkpt lat="48.61438" lon="1.94008">
        <ele>165.1</ele>
        <time>2022-10-27T07:40:37Z</time>
      </trkpt>
      <trkpt lat="48.61434" lon="1.94021">
        <ele>165.7</ele>
        <time>2022-10-27T07:40:44Z</time>
      </trkpt>
      <trkpt lat="48.61429" lon="1.94032">
        <ele>166</ele>
        <time>2022-10-27T07:40:50Z</time>
      </trkpt>
      <trkpt lat="48.61423" lon="1.94042">
        <ele>166</ele>
        <time>2022-10-27T07:40:56Z</time>
      </trkpt>
      <trkpt lat="48.61417" lon="1.94055">
        <ele>166</ele>
        <time>2022-10-27T07:41:03Z</time>
      </trkpt>
      <trkpt lat="48.61412" lon="1.94068">
        <ele>165.3</ele>
        <time>2022-10-27T07:41:10Z</time>
      </trkpt>
      <trkpt lat="48.61406" lon="1.94079">
        <ele>164.7</ele>
        <time>2022-10-27T07:41:16Z</time>
      </trkpt>
      <trkpt lat="48.614" lon="1.9409">
        <ele>164.2</ele>
        <time>2022-10-27T07:41:23Z</time>
      </trkpt>
      <trkpt lat="48.61394" lon="1.94102">
        <ele>163.5</ele>
        <time>2022-10-27T07:41:29Z</time>
      </trkpt>
      <trkpt lat="48.61388" lon="1.94115">
        <ele>162.8</ele>
        <time>2022-10-27T07:41:37Z</time>
      </trkpt>
      <trkpt lat="48.61381" lon="1.94125">
        <ele>161.7</ele>
        <time>2022-10-27T07:41:45Z</time>
      </trkpt>
      <trkpt lat="48.61378" lon="1.9414">
        <ele>160.8</ele>
        <time>2022-10-27T07:41:53Z</time>
      </trkpt>
      <trkpt lat="48.61379" lon="1.94153">
        <ele>160.4</ele>
        <time>2022-10-27T07:42:01Z</time>
      </trkpt>
      <trkpt lat="48.6138" lon="1.94169">
        <ele>160</ele>
        <time>2022-10-27T07:42:10Z</time>
      </trkpt>
      <trkpt lat="48.61379" lon="1.94183">
        <ele>159.1</ele>
        <time>2022-10-27T07:42:20Z</time>
      </trkpt>
      <trkpt lat="48.61379" lon="1.94197">
        <ele>158.4</ele>
        <time>2022-10-27T07:42:28Z</time>
      </trkpt>
      <trkpt lat="48.61378" lon="1.94212">
        <ele>157.2</ele>
        <time>2022-10-27T07:42:36Z</time>
      </trkpt>
      <trkpt lat="48.61377" lon="1.94227">
        <ele>155.8</ele>
        <time>2022-10-27T07:42:43Z</time>
      </trkpt>
      <trkpt lat="48.61378" lon="1.9424">
        <ele>154.8</ele>
        <time>2022-10-27T07:42:49Z</time>
      </trkpt>
      <trkpt lat="48.6138" lon="1.94254">
        <ele>153.8</ele>
        <time>2022-10-27T07:42:55Z</time>
      </trkpt>
      <trkpt lat="48.61378" lon="1.94268">
        <ele>153</ele>
        <time>2022-10-27T07:43:00Z</time>
      </trkpt>
      <trkpt lat="48.6138" lon="1.94282">
        <ele>152.4</ele>
        <time>2022-10-27T07:43:06Z</time>
      </trkpt>
      <trkpt lat="48.61378" lon="1.94296">
        <ele>151.4</ele>
        <time>2022-10-27T07:43:13Z</time>
      </trkpt>
      <trkpt lat="48.61377" lon="1.94311">
        <ele>150.4</ele>
        <time>2022-10-27T07:43:20Z</time>
      </trkpt>
      <trkpt lat="48.61374" lon="1.94324">
        <ele>149.4</ele>
        <time>2022-10-27T07:43:27Z</time>
      </trkpt>
      <trkpt lat="48.61374" lon="1.9434">
        <ele>148.9</ele>
        <time>2022-10-27T07:43:34Z</time>
      </trkpt>
      <trkpt lat="48.61372" lon="1.94354">
        <ele>148.8</ele>
        <time>2022-10-27T07:43:44Z</time>
      </trkpt>
      <trkpt lat="48.61368" lon="1.94368">
        <ele>148.3</ele>
        <time>2022-10-27T07:43:51Z</time>
      </trkpt>
      <trkpt lat="48.61365" lon="1.94382">
        <ele>147.5</ele>
        <time>2022-10-27T07:43:58Z</time>
      </trkpt>
      <trkpt lat="48.61364" lon="1.94397">
        <ele>147.2</ele>
        <time>2022-10-27T07:44:10Z</time>
      </trkpt>
      <trkpt lat="48.6136" lon="1.94411">
        <ele>147</ele>
        <time>2022-10-27T07:44:18Z</time>
      </trkpt>
      <trkpt lat="48.61358" lon="1.94425">
        <ele>146.7</ele>
        <time>2022-10-27T07:44:25Z</time>
      </trkpt>
      <trkpt lat="48.61353" lon="1.94438">
        <ele>146.2</ele>
        <time>2022-10-27T07:44:32Z</time>
      </trkpt>
      <trkpt lat="48.61349" lon="1.94451">
        <ele>145.7</ele>
        <time>2022-10-27T07:44:39Z</time>
      </trkpt>
      <trkpt lat="48.61345" lon="1.94466">
        <ele>145.3</ele>
        <time>2022-10-27T07:44:46Z</time>
      </trkpt>
      <trkpt lat="48.61341" lon="1.9448">
        <ele>144.8</ele>
        <time>2022-10-27T07:44:52Z</time>
      </trkpt>
      <trkpt lat="48.61336" lon="1.94493">
        <ele>144.3</ele>
        <time>2022-10-27T07:44:58Z</time>
      </trkpt>
      <trkpt lat="48.61333" lon="1.94506">
        <ele>144</ele>
        <time>2022-10-27T07:45:10Z</time>
      </trkpt>
      <trkpt lat="48.61325" lon="1.94513">
        <ele>143.4</ele>
        <time>2022-10-27T07:45:55Z</time>
      </trkpt>
      <trkpt lat="48.61329" lon="1.94526">
        <ele>143.7</ele>
        <time>2022-10-27T07:46:02Z</time>
      </trkpt>
      <trkpt lat="48.61336" lon="1.94535">
        <ele>144.3</ele>
        <time>2022-10-27T07:46:09Z</time>
      </trkpt>
      <trkpt lat="48.61344" lon="1.94543">
        <ele>145.2</ele>
        <time>2022-10-27T07:46:17Z</time>
      </trkpt>
      <trkpt lat="48.61352" lon="1.94551">
        <ele>146</ele>
        <time>2022-10-27T07:46:25Z</time>
      </trkpt>
      <trkpt lat="48.61359" lon="1.94562">
        <ele>146.6</ele>
        <time>2022-10-27T07:46:32Z</time>
      </trkpt>
      <trkpt lat="48.61368" lon="1.94568">
        <ele>146.8</ele>
        <time>2022-10-27T07:46:42Z</time>
      </trkpt>
      <trkpt lat="48.61375" lon="1.94577">
        <ele>146.7</ele>
        <time>2022-10-27T07:46:50Z</time>
      </trkpt>
      <trkpt lat="48.61383" lon="1.94586">
        <ele>146.7</ele>
        <time>2022-10-27T07:46:58Z</time>
      </trkpt>
      <trkpt lat="48.61389" lon="1.94597">
        <ele>146.5</ele>
        <time>2022-10-27T07:47:04Z</time>
      </trkpt>
      <trkpt lat="48.61392" lon="1.9461">
        <ele>146</ele>
        <time>2022-10-27T07:47:09Z</time>
      </trkpt>
      <trkpt lat="48.61394" lon="1.94625">
        <ele>145.9</ele>
        <time>2022-10-27T07:47:15Z</time>
      </trkpt>
      <trkpt lat="48.61393" lon="1.94639">
        <ele>145.8</ele>
        <time>2022-10-27T07:47:22Z</time>
      </trkpt>
      <trkpt lat="48.61389" lon="1.94652">
        <ele>145.5</ele>
        <time>2022-10-27T07:47:34Z</time>
      </trkpt>
      <trkpt lat="48.61385" lon="1.94663">
        <ele>144.9</ele>
        <time>2022-10-27T07:47:45Z</time>
      </trkpt>
      <trkpt lat="48.6138" lon="1.94677">
        <ele>144.5</ele>
        <time>2022-10-27T07:48:36Z</time>
      </trkpt>
      <trkpt lat="48.61379" lon="1.94692">
        <ele>144.3</ele>
        <time>2022-10-27T07:48:43Z</time>
      </trkpt>
      <trkpt lat="48.61374" lon="1.94706">
        <ele>143.5</ele>
        <time>2022-10-27T07:48:52Z</time>
      </trkpt>
      <trkpt lat="48.61368" lon="1.94717">
        <ele>142.7</ele>
        <time>2022-10-27T07:48:59Z</time>
      </trkpt>
      <trkpt lat="48.61366" lon="1.9473">
        <ele>141.8</ele>
        <time>2022-10-27T07:49:07Z</time>
      </trkpt>
      <trkpt lat="48.61362" lon="1.94743">
        <ele>140.6</ele>
        <time>2022-10-27T07:49:14Z</time>
      </trkpt>
      <trkpt lat="48.61357" lon="1.94756">
        <ele>139.5</ele>
        <time>2022-10-27T07:49:22Z</time>
      </trkpt>
      <trkpt lat="48.61348" lon="1.94765">
        <ele>138.3</ele>
        <time>2022-10-27T07:49:30Z</time>
      </trkpt>
      <trkpt lat="48.61342" lon="1.94777">
        <ele>137</ele>
        <time>2022-10-27T07:49:37Z</time>
      </trkpt>
      <trkpt lat="48.6134" lon="1.94793">
        <ele>136.2</ele>
        <time>2022-10-27T07:49:44Z</time>
      </trkpt>
      <trkpt lat="48.61339" lon="1.94807">
        <ele>135.6</ele>
        <time>2022-10-27T07:49:53Z</time>
      </trkpt>
      <trkpt lat="48.61337" lon="1.94822">
        <ele>134.8</ele>
        <time>2022-10-27T07:50:01Z</time>
      </trkpt>
      <trkpt lat="48.61336" lon="1.94837">
        <ele>134.2</ele>
        <time>2022-10-27T07:50:08Z</time>
      </trkpt>
      <trkpt lat="48.61335" lon="1.94851">
        <ele>134.1</ele>
        <time>2022-10-27T07:50:16Z</time>
      </trkpt>
      <trkpt lat="48.61335" lon="1.94865">
        <ele>134.2</ele>
        <time>2022-10-27T07:50:23Z</time>
      </trkpt>
      <trkpt lat="48.61335" lon="1.9488">
        <ele>134.2</ele>
        <time>2022-10-27T07:50:30Z</time>
      </trkpt>
      <trkpt lat="48.61336" lon="1.94895">
        <ele>134.3</ele>
        <time>2022-10-27T07:50:36Z</time>
      </trkpt>
      <trkpt lat="48.61333" lon="1.9491">
        <ele>133.9</ele>
        <time>2022-10-27T07:50:42Z</time>
      </trkpt>
      <trkpt lat="48.61331" lon="1.94924">
        <ele>133.8</ele>
        <time>2022-10-27T07:50:47Z</time>
      </trkpt>
      <trkpt lat="48.61328" lon="1.94937">
        <ele>133.4</ele>
        <time>2022-10-27T07:50:53Z</time>
      </trkpt>
      <trkpt lat="48.61325" lon="1.94952">
        <ele>133.1</ele>
        <time>2022-10-27T07:51:00Z</time>
      </trkpt>
      <trkpt lat="48.61322" lon="1.94968">
        <ele>132.8</ele>
        <time>2022-10-27T07:51:06Z</time>
      </trkpt>
      <trkpt lat="48.6132" lon="1.94982">
        <ele>132.4</ele>
        <time>2022-10-27T07:51:12Z</time>
      </trkpt>
      <trkpt lat="48.61321" lon="1.94997">
        <ele>132.2</ele>
        <time>2022-10-27T07:51:19Z</time>
      </trkpt>
      <trkpt lat="48.61318" lon="1.95012">
        <ele>132</ele>
        <time>2022-10-27T07:51:26Z</time>
      </trkpt>
      <trkpt lat="48.61316" lon="1.95025">
        <ele>132.1</ele>
        <time>2022-10-27T07:51:32Z</time>
      </trkpt>
      <trkpt lat="48.61314" lon="1.95039">
        <ele>132.1</ele>
        <time>2022-10-27T07:51:39Z</time>
      </trkpt>
      <trkpt lat="48.61313" lon="1.95053">
        <ele>132</ele>
        <time>2022-10-27T07:51:46Z</time>
      </trkpt>
      <trkpt lat="48.61308" lon="1.95066">
        <ele>131.4</ele>
        <time>2022-10-27T07:51:52Z</time>
      </trkpt>
      <trkpt lat="48.61307" lon="1.95081">
        <ele>131.2</ele>
        <time>2022-10-27T07:51:58Z</time>
      </trkpt>
      <trkpt lat="48.61307" lon="1.95096">
        <ele>131.2</ele>
        <time>2022-10-27T07:52:05Z</time>
      </trkpt>
      <trkpt lat="48.61304" lon="1.9511">
        <ele>130.8</ele>
        <time>2022-10-27T07:52:12Z</time>
      </trkpt>
      <trkpt lat="48.61302" lon="1.95124">
        <ele>130.5</ele>
        <time>2022-10-27T07:52:18Z</time>
      </trkpt>
      <trkpt lat="48.61296" lon="1.95134">
        <ele>129.9</ele>
        <time>2022-10-27T07:54:08Z</time>
      </trkpt>
      <trkpt lat="48.61294" lon="1.9515">
        <ele>129.6</ele>
        <time>2022-10-27T07:54:19Z</time>
      </trkpt>
      <trkpt lat="48.61292" lon="1.95165">
        <ele>129.1</ele>
        <time>2022-10-27T07:54:27Z</time>
      </trkpt>
      <trkpt lat="48.61291" lon="1.95178">
        <ele>128.9</ele>
        <time>2022-10-27T07:54:34Z</time>
      </trkpt>
      <trkpt lat="48.61288" lon="1.95193">
        <ele>128.5</ele>
        <time>2022-10-27T07:54:42Z</time>
      </trkpt>
      <trkpt lat="48.61286" lon="1.95206">
        <ele>128</ele>
        <time>2022-10-27T07:54:49Z</time>
      </trkpt>
      <trkpt lat="48.61284" lon="1.95221">
        <ele>127.6</ele>
        <time>2022-10-27T07:54:56Z</time>
      </trkpt>
      <trkpt lat="48.61281" lon="1.95235">
        <ele>127.4</ele>
        <time>2022-10-27T07:55:04Z</time>
      </trkpt>
      <trkpt lat="48.61279" lon="1.9525">
        <ele>127.2</ele>
        <time>2022-10-27T07:55:12Z</time>
      </trkpt>
      <trkpt lat="48.61276" lon="1.95265">
        <ele>126.9</ele>
        <time>2022-10-27T07:55:19Z</time>
      </trkpt>
      <trkpt lat="48.61277" lon="1.9528">
        <ele>126.8</ele>
        <time>2022-10-27T07:55:25Z</time>
      </trkpt>
      <trkpt lat="48.61277" lon="1.95294">
        <ele>126.3</ele>
        <time>2022-10-27T07:55:32Z</time>
      </trkpt>
      <trkpt lat="48.61275" lon="1.95309">
        <ele>125.7</ele>
        <time>2022-10-27T07:55:41Z</time>
      </trkpt>
      <trkpt lat="48.61275" lon="1.95324">
        <ele>125.7</ele>
        <time>2022-10-27T07:55:48Z</time>
      </trkpt>
      <trkpt lat="48.61278" lon="1.95338">
        <ele>126.1</ele>
        <time>2022-10-27T07:55:55Z</time>
      </trkpt>
      <trkpt lat="48.6128" lon="1.95352">
        <ele>126.4</ele>
        <time>2022-10-27T07:56:01Z</time>
      </trkpt>
      <trkpt lat="48.6128" lon="1.95366">
        <ele>126.3</ele>
        <time>2022-10-27T07:56:07Z</time>
      </trkpt>
      <trkpt lat="48.61278" lon="1.9538">
        <ele>126</ele>
        <time>2022-10-27T07:56:13Z</time>
      </trkpt>
      <trkpt lat="48.61276" lon="1.95394">
        <ele>126</ele>
        <time>2022-10-27T07:56:19Z</time>
      </trkpt>
      <trkpt lat="48.61274" lon="1.95408">
        <ele>126.2</ele>
        <time>2022-10-27T07:56:25Z</time>
      </trkpt>
      <trkpt lat="48.6127" lon="1.95422">
        <ele>125.8</ele>
        <time>2022-10-27T07:56:34Z</time>
      </trkpt>
      <trkpt lat="48.61268" lon="1.95435">
        <ele>125.5</ele>
        <time>2022-10-27T07:56:40Z</time>
      </trkpt>
      <trkpt lat="48.61266" lon="1.95449">
        <ele>125.4</ele>
        <time>2022-10-27T07:56:46Z</time>
      </trkpt>
      <trkpt lat="48.61263" lon="1.95463">
        <ele>125.2</ele>
        <time>2022-10-27T07:56:53Z</time>
      </trkpt>
      <trkpt lat="48.61259" lon="1.95475">
        <ele>124.6</ele>
        <time>2022-10-27T07:56:59Z</time>
      </trkpt>
      <trkpt lat="48.61256" lon="1.95489">
        <ele>124</ele>
        <time>2022-10-27T07:57:05Z</time>
      </trkpt>
      <trkpt lat="48.61254" lon="1.95504">
        <ele>123.6</ele>
        <time>2022-10-27T07:57:11Z</time>
      </trkpt>
      <trkpt lat="48.61253" lon="1.95519">
        <ele>123.4</ele>
        <time>2022-10-27T07:57:18Z</time>
      </trkpt>
      <trkpt lat="48.61249" lon="1.95533">
        <ele>122.7</ele>
        <time>2022-10-27T07:57:25Z</time>
      </trkpt>
      <trkpt lat="48.61249" lon="1.95547">
        <ele>122.2</ele>
        <time>2022-10-27T07:57:31Z</time>
      </trkpt>
      <trkpt lat="48.61247" lon="1.95562">
        <ele>121.7</ele>
        <time>2022-10-27T07:57:37Z</time>
      </trkpt>
      <trkpt lat="48.61243" lon="1.95575">
        <ele>121.3</ele>
        <time>2022-10-27T07:57:44Z</time>
      </trkpt>
      <trkpt lat="48.61242" lon="1.9559">
        <ele>121</ele>
        <time>2022-10-27T07:57:50Z</time>
      </trkpt>
      <trkpt lat="48.61241" lon="1.95603">
        <ele>120.5</ele>
        <time>2022-10-27T07:57:56Z</time>
      </trkpt>
      <trkpt lat="48.61238" lon="1.95617">
        <ele>120.2</ele>
        <time>2022-10-27T07:58:02Z</time>
      </trkpt>
      <trkpt lat="48.61238" lon="1.95632">
        <ele>120.2</ele>
        <time>2022-10-27T07:58:09Z</time>
      </trkpt>
      <trkpt lat="48.61236" lon="1.95646">
        <ele>119.8</ele>
        <time>2022-10-27T07:58:16Z</time>
      </trkpt>
      <trkpt lat="48.61234" lon="1.95661">
        <ele>119.1</ele>
        <time>2022-10-27T07:58:23Z</time>
      </trkpt>
      <trkpt lat="48.61233" lon="1.95677">
        <ele>118.6</ele>
        <time>2022-10-27T07:58:31Z</time>
      </trkpt>
      <trkpt lat="48.6123" lon="1.95691">
        <ele>118.3</ele>
        <time>2022-10-27T07:58:37Z</time>
      </trkpt>
      <trkpt lat="48.61228" lon="1.95705">
        <ele>117.9</ele>
        <time>2022-10-27T07:58:42Z</time>
      </trkpt>
      <trkpt lat="48.61226" lon="1.95719">
        <ele>117.3</ele>
        <time>2022-10-27T07:58:48Z</time>
      </trkpt>
      <trkpt lat="48.61222" lon="1.95733">
        <ele>117</ele>
        <time>2022-10-27T07:58:56Z</time>
      </trkpt>
      <trkpt lat="48.61221" lon="1.95747">
        <ele>116.9</ele>
        <time>2022-10-27T07:59:03Z</time>
      </trkpt>
      <trkpt lat="48.6122" lon="1.95762">
        <ele>116.4</ele>
        <time>2022-10-27T07:59:08Z</time>
      </trkpt>
      <trkpt lat="48.61219" lon="1.95776">
        <ele>115.9</ele>
        <time>2022-10-27T07:59:15Z</time>
      </trkpt>
      <trkpt lat="48.6122" lon="1.95792">
        <ele>115.8</ele>
        <time>2022-10-27T07:59:22Z</time>
      </trkpt>
      <trkpt lat="48.61217" lon="1.95806">
        <ele>115.6</ele>
        <time>2022-10-27T07:59:28Z</time>
      </trkpt>
      <trkpt lat="48.61219" lon="1.9582">
        <ele>115.3</ele>
        <time>2022-10-27T07:59:35Z</time>
      </trkpt>
      <trkpt lat="48.61221" lon="1.95834">
        <ele>114.9</ele>
        <time>2022-10-27T07:59:42Z</time>
      </trkpt>
      <trkpt lat="48.61222" lon="1.95848">
        <ele>115</ele>
        <time>2022-10-27T07:59:50Z</time>
      </trkpt>
      <trkpt lat="48.61225" lon="1.95863">
        <ele>115.1</ele>
        <time>2022-10-27T07:59:57Z</time>
      </trkpt>
      <trkpt lat="48.61225" lon="1.95877">
        <ele>114.6</ele>
        <time>2022-10-27T08:00:05Z</time>
      </trkpt>
      <trkpt lat="48.61223" lon="1.95891">
        <ele>113.9</ele>
        <time>2022-10-27T08:00:13Z</time>
      </trkpt>
      <trkpt lat="48.61226" lon="1.95907">
        <ele>113.7</ele>
        <time>2022-10-27T08:00:20Z</time>
      </trkpt>
      <trkpt lat="48.6123" lon="1.95921">
        <ele>113.4</ele>
        <time>2022-10-27T08:00:26Z</time>
      </trkpt>
      <trkpt lat="48.61233" lon="1.95936">
        <ele>112.8</ele>
        <time>2022-10-27T08:00:33Z</time>
      </trkpt>
      <trkpt lat="48.61236" lon="1.9595">
        <ele>112.2</ele>
        <time>2022-10-27T08:00:39Z</time>
      </trkpt>
      <trkpt lat="48.61238" lon="1.95963">
        <ele>111.6</ele>
        <time>2022-10-27T08:00:45Z</time>
      </trkpt>
      <trkpt lat="48.61241" lon="1.95978">
        <ele>111.2</ele>
        <time>2022-10-27T08:00:51Z</time>
      </trkpt>
      <trkpt lat="48.61246" lon="1.9599">
        <ele>111.1</ele>
        <time>2022-10-27T08:00:58Z</time>
      </trkpt>
      <trkpt lat="48.61247" lon="1.96003">
        <ele>110.7</ele>
        <time>2022-10-27T08:01:05Z</time>
      </trkpt>
      <trkpt lat="48.61248" lon="1.96018">
        <ele>110.2</ele>
        <time>2022-10-27T08:01:12Z</time>
      </trkpt>
      <trkpt lat="48.6125" lon="1.96032">
        <ele>109.8</ele>
        <time>2022-10-27T08:01:19Z</time>
      </trkpt>
      <trkpt lat="48.6125" lon="1.96046">
        <ele>109.3</ele>
        <time>2022-10-27T08:01:26Z</time>
      </trkpt>
      <trkpt lat="48.61252" lon="1.96061">
        <ele>109.1</ele>
        <time>2022-10-27T08:01:31Z</time>
      </trkpt>
      <trkpt lat="48.61255" lon="1.96076">
        <ele>109.2</ele>
        <time>2022-10-27T08:01:36Z</time>
      </trkpt>
      <trkpt lat="48.61254" lon="1.96092">
        <ele>108.8</ele>
        <time>2022-10-27T08:01:42Z</time>
      </trkpt>
      <trkpt lat="48.6125" lon="1.96107">
        <ele>108.2</ele>
        <time>2022-10-27T08:01:48Z</time>
      </trkpt>
      <trkpt lat="48.61247" lon="1.96121">
        <ele>107.9</ele>
        <time>2022-10-27T08:01:54Z</time>
      </trkpt>
      <trkpt lat="48.61245" lon="1.96135">
        <ele>107.8</ele>
        <time>2022-10-27T08:02:02Z</time>
      </trkpt>
      <trkpt lat="48.61236" lon="1.96138">
        <ele>107.5</ele>
        <time>2022-10-27T08:02:32Z</time>
      </trkpt>
      <trkpt lat="48.61244" lon="1.96146">
        <ele>107.5</ele>
        <time>2022-10-27T08:04:34Z</time>
      </trkpt>
      <trkpt lat="48.6125" lon="1.96156">
        <ele>107.4</ele>
        <time>2022-10-27T08:04:40Z</time>
      </trkpt>
      <trkpt lat="48.61257" lon="1.96166">
        <ele>107.3</ele>
        <time>2022-10-27T08:04:52Z</time>
      </trkpt>
      <trkpt lat="48.61265" lon="1.96175">
        <ele>107.4</ele>
        <time>2022-10-27T08:05:00Z</time>
      </trkpt>
      <trkpt lat="48.6127" lon="1.96188">
        <ele>107.2</ele>
        <time>2022-10-27T08:05:07Z</time>
      </trkpt>
      <trkpt lat="48.61274" lon="1.96202">
        <ele>106.7</ele>
        <time>2022-10-27T08:05:13Z</time>
      </trkpt>
      <trkpt lat="48.61282" lon="1.96209">
        <ele>106.5</ele>
        <time>2022-10-27T08:05:22Z</time>
      </trkpt>
      <trkpt lat="48.61288" lon="1.96222">
        <ele>106</ele>
        <time>2022-10-27T08:05:29Z</time>
      </trkpt>
      <trkpt lat="48.61289" lon="1.96236">
        <ele>106</ele>
        <time>2022-10-27T08:05:36Z</time>
      </trkpt>
      <trkpt lat="48.61294" lon="1.96247">
        <ele>106</ele>
        <time>2022-10-27T08:05:42Z</time>
      </trkpt>
      <trkpt lat="48.61301" lon="1.96257">
        <ele>105.8</ele>
        <time>2022-10-27T08:05:49Z</time>
      </trkpt>
      <trkpt lat="48.61304" lon="1.9627">
        <ele>105.3</ele>
        <time>2022-10-27T08:05:55Z</time>
      </trkpt>
      <trkpt lat="48.6131" lon="1.96281">
        <ele>105</ele>
        <time>2022-10-27T08:06:03Z</time>
      </trkpt>
      <trkpt lat="48.61319" lon="1.96289">
        <ele>105</ele>
        <time>2022-10-27T08:06:10Z</time>
      </trkpt>
      <trkpt lat="48.61328" lon="1.96296">
        <ele>105</ele>
        <time>2022-10-27T08:06:17Z</time>
      </trkpt>
      <trkpt lat="48.61334" lon="1.96307">
        <ele>104.9</ele>
        <time>2022-10-27T08:06:24Z</time>
      </trkpt>
      <trkpt lat="48.61344" lon="1.96313">
        <ele>104.5</ele>
        <time>2022-10-27T08:06:35Z</time>
      </trkpt>
      <trkpt lat="48.61353" lon="1.96318">
        <ele>104.2</ele>
        <time>2022-10-27T08:06:43Z</time>
      </trkpt>
      <trkpt lat="48.61361" lon="1.96324">
        <ele>104</ele>
        <time>2022-10-27T08:06:49Z</time>
      </trkpt>
      <trkpt lat="48.61369" lon="1.96332">
        <ele>104</ele>
        <time>2022-10-27T08:06:56Z</time>
      </trkpt>
      <trkpt lat="48.61377" lon="1.96339">
        <ele>104</ele>
        <time>2022-10-27T08:07:03Z</time>
      </trkpt>
      <trkpt lat="48.61386" lon="1.96343">
        <ele>104</ele>
        <time>2022-10-27T08:07:10Z</time>
      </trkpt>
      <trkpt lat="48.61394" lon="1.96352">
        <ele>104</ele>
        <time>2022-10-27T08:07:16Z</time>
      </trkpt>
      <trkpt lat="48.61403" lon="1.96361">
        <ele>104</ele>
        <time>2022-10-27T08:07:22Z</time>
      </trkpt>
      <trkpt lat="48.61411" lon="1.96367">
        <ele>104</ele>
        <time>2022-10-27T08:07:28Z</time>
      </trkpt>
      <trkpt lat="48.61419" lon="1.96375">
        <ele>104</ele>
        <time>2022-10-27T08:07:34Z</time>
      </trkpt>
      <trkpt lat="48.61427" lon="1.96385">
        <ele>104</ele>
        <time>2022-10-27T08:07:41Z</time>
      </trkpt>
      <trkpt lat="48.61431" lon="1.96399">
        <ele>104</ele>
        <time>2022-10-27T08:07:47Z</time>
      </trkpt>
      <trkpt lat="48.61436" lon="1.96413">
        <ele>104</ele>
        <time>2022-10-27T08:07:54Z</time>
      </trkpt>
      <trkpt lat="48.6144" lon="1.96425">
        <ele>104</ele>
        <time>2022-10-27T08:08:01Z</time>
      </trkpt>
      <trkpt lat="48.61446" lon="1.96437">
        <ele>104</ele>
        <time>2022-10-27T08:08:11Z</time>
      </trkpt>
      <trkpt lat="48.61452" lon="1.96447">
        <ele>104</ele>
        <time>2022-10-27T08:08:18Z</time>
      </trkpt>
      <trkpt lat="48.61459" lon="1.96459">
        <ele>104</ele>
        <time>2022-10-27T08:08:24Z</time>
      </trkpt>
      <trkpt lat="48.61466" lon="1.96468">
        <ele>104</ele>
        <time>2022-10-27T08:08:30Z</time>
      </trkpt>
      <trkpt lat="48.61469" lon="1.96482">
        <ele>104</ele>
        <time>2022-10-27T08:08:41Z</time>
      </trkpt>
      <trkpt lat="48.61474" lon="1.96495">
        <ele>104.1</ele>
        <time>2022-10-27T08:08:48Z</time>
      </trkpt>
      <trkpt lat="48.61482" lon="1.96504">
        <ele>104.6</ele>
        <time>2022-10-27T08:08:57Z</time>
      </trkpt>
      <trkpt lat="48.61489" lon="1.96513">
        <ele>104.9</ele>
        <time>2022-10-27T08:09:07Z</time>
      </trkpt>
      <trkpt lat="48.61496" lon="1.96521">
        <ele>105.1</ele>
        <time>2022-10-27T08:09:15Z</time>
      </trkpt>
      <trkpt lat="48.61504" lon="1.96529">
        <ele>105.3</ele>
        <time>2022-10-27T08:09:21Z</time>
      </trkpt>
      <trkpt lat="48.61511" lon="1.9654">
        <ele>105.8</ele>
        <time>2022-10-27T08:09:29Z</time>
      </trkpt>
      <trkpt lat="48.61518" lon="1.96549">
        <ele>106.3</ele>
        <time>2022-10-27T08:09:37Z</time>
      </trkpt>
      <trkpt lat="48.61522" lon="1.96562">
        <ele>106.6</ele>
        <time>2022-10-27T08:09:42Z</time>
      </trkpt>
      <trkpt lat="48.61527" lon="1.96575">
        <ele>107</ele>
        <time>2022-10-27T08:09:48Z</time>
      </trkpt>
      <trkpt lat="48.61532" lon="1.96587">
        <ele>107.1</ele>
        <time>2022-10-27T08:09:55Z</time>
      </trkpt>
      <trkpt lat="48.61538" lon="1.96598">
        <ele>107.1</ele>
        <time>2022-10-27T08:10:02Z</time>
      </trkpt>
      <trkpt lat="48.61545" lon="1.96609">
        <ele>107.3</ele>
        <time>2022-10-27T08:10:09Z</time>
      </trkpt>
      <trkpt lat="48.61553" lon="1.96618">
        <ele>107.6</ele>
        <time>2022-10-27T08:10:16Z</time>
      </trkpt>
      <trkpt lat="48.61559" lon="1.96629">
        <ele>107.5</ele>
        <time>2022-10-27T08:10:22Z</time>
      </trkpt>
      <trkpt lat="48.61565" lon="1.9664">
        <ele>107.7</ele>
        <time>2022-10-27T08:10:30Z</time>
      </trkpt>
      <trkpt lat="48.61574" lon="1.96648">
        <ele>108.1</ele>
        <time>2022-10-27T08:10:38Z</time>
      </trkpt>
      <trkpt lat="48.6158" lon="1.96658">
        <ele>108.2</ele>
        <time>2022-10-27T08:10:46Z</time>
      </trkpt>
      <trkpt lat="48.61589" lon="1.96666">
        <ele>108.2</ele>
        <time>2022-10-27T08:10:53Z</time>
      </trkpt>
      <trkpt lat="48.61595" lon="1.96676">
        <ele>108.4</ele>
        <time>2022-10-27T08:11:00Z</time>
      </trkpt>
      <trkpt lat="48.61601" lon="1.96687">
        <ele>108.6</ele>
        <time>2022-10-27T08:11:07Z</time>
      </trkpt>
      <trkpt lat="48.61607" lon="1.96697">
        <ele>108.9</ele>
        <time>2022-10-27T08:11:13Z</time>
      </trkpt>
      <trkpt lat="48.61615" lon="1.96706">
        <ele>109.2</ele>
        <time>2022-10-27T08:11:19Z</time>
      </trkpt>
      <trkpt lat="48.61621" lon="1.96716">
        <ele>109.4</ele>
        <time>2022-10-27T08:11:26Z</time>
      </trkpt>
      <trkpt lat="48.61629" lon="1.96726">
        <ele>109.6</ele>
        <time>2022-10-27T08:11:36Z</time>
      </trkpt>
      <trkpt lat="48.61636" lon="1.96736">
        <ele>109.8</ele>
        <time>2022-10-27T08:11:43Z</time>
      </trkpt>
      <trkpt lat="48.61644" lon="1.96746">
        <ele>110.4</ele>
        <time>2022-10-27T08:11:50Z</time>
      </trkpt>
      <trkpt lat="48.61653" lon="1.96755">
        <ele>111</ele>
        <time>2022-10-27T08:11:56Z</time>
      </trkpt>
      <trkpt lat="48.6166" lon="1.96764">
        <ele>111.5</ele>
        <time>2022-10-27T08:12:01Z</time>
      </trkpt>
      <trkpt lat="48.61668" lon="1.96773">
        <ele>112.1</ele>
        <time>2022-10-27T08:12:08Z</time>
      </trkpt>
      <trkpt lat="48.61676" lon="1.96782">
        <ele>112.5</ele>
        <time>2022-10-27T08:12:17Z</time>
      </trkpt>
      <trkpt lat="48.61682" lon="1.96793">
        <ele>112.5</ele>
        <time>2022-10-27T08:12:24Z</time>
      </trkpt>
      <trkpt lat="48.61689" lon="1.96804">
        <ele>112.7</ele>
        <time>2022-10-27T08:12:31Z</time>
      </trkpt>
      <trkpt lat="48.61696" lon="1.96816">
        <ele>113.1</ele>
        <time>2022-10-27T08:12:38Z</time>
      </trkpt>
      <trkpt lat="48.617" lon="1.96829">
        <ele>113.4</ele>
        <time>2022-10-27T08:12:45Z</time>
      </trkpt>
      <trkpt lat="48.61706" lon="1.96842">
        <ele>113.7</ele>
        <time>2022-10-27T08:12:53Z</time>
      </trkpt>
      <trkpt lat="48.61712" lon="1.96853">
        <ele>113.8</ele>
        <time>2022-10-27T08:13:00Z</time>
      </trkpt>
      <trkpt lat="48.61717" lon="1.96866">
        <ele>113.6</ele>
        <time>2022-10-27T08:13:06Z</time>
      </trkpt>
      <trkpt lat="48.61724" lon="1.96876">
        <ele>113.6</ele>
        <time>2022-10-27T08:13:13Z</time>
      </trkpt>
      <trkpt lat="48.6173" lon="1.96889">
        <ele>113.5</ele>
        <time>2022-10-27T08:13:20Z</time>
      </trkpt>
      <trkpt lat="48.61737" lon="1.96899">
        <ele>113.9</ele>
        <time>2022-10-27T08:13:27Z</time>
      </trkpt>
      <trkpt lat="48.61741" lon="1.96913">
        <ele>113.8</ele>
        <time>2022-10-27T08:13:34Z</time>
      </trkpt>
      <trkpt lat="48.6175" lon="1.96921">
        <ele>113.8</ele>
        <time>2022-10-27T08:13:43Z</time>
      </trkpt>
      <trkpt lat="48.61757" lon="1.96932">
        <ele>113.7</ele>
        <time>2022-10-27T08:13:50Z</time>
      </trkpt>
      <trkpt lat="48.61762" lon="1.96944">
        <ele>113.5</ele>
        <time>2022-10-27T08:13:58Z</time>
      </trkpt>
      <trkpt lat="48.6177" lon="1.96952">
        <ele>113.5</ele>
        <time>2022-10-27T08:14:04Z</time>
      </trkpt>
      <trkpt lat="48.61778" lon="1.96959">
        <ele>113.5</ele>
        <time>2022-10-27T08:14:11Z</time>
      </trkpt>
      <trkpt lat="48.61787" lon="1.96967">
        <ele>113.5</ele>
        <time>2022-10-27T08:14:17Z</time>
      </trkpt>
      <trkpt lat="48.61794" lon="1.96977">
        <ele>113.4</ele>
        <time>2022-10-27T08:14:25Z</time>
      </trkpt>
      <trkpt lat="48.61796" lon="1.96991">
        <ele>113</ele>
        <time>2022-10-27T08:14:41Z</time>
      </trkpt>
      <trkpt lat="48.61788" lon="1.97">
        <ele>112.4</ele>
        <time>2022-10-27T08:14:51Z</time>
      </trkpt>
      <trkpt lat="48.6178" lon="1.97008">
        <ele>112.1</ele>
        <time>2022-10-27T08:14:59Z</time>
      </trkpt>
      <trkpt lat="48.61771" lon="1.97013">
        <ele>111.7</ele>
        <time>2022-10-27T08:15:08Z</time>
      </trkpt>
      <trkpt lat="48.61761" lon="1.97017">
        <ele>111.4</ele>
        <time>2022-10-27T08:15:15Z</time>
      </trkpt>
      <trkpt lat="48.61752" lon="1.9702">
        <ele>111.1</ele>
        <time>2022-10-27T08:15:21Z</time>
      </trkpt>
      <trkpt lat="48.61742" lon="1.97021">
        <ele>110.5</ele>
        <time>2022-10-27T08:15:29Z</time>
      </trkpt>
      <trkpt lat="48.61733" lon="1.97019">
        <ele>110</ele>
        <time>2022-10-27T08:15:36Z</time>
      </trkpt>
      <trkpt lat="48.61724" lon="1.97014">
        <ele>109.6</ele>
        <time>2022-10-27T08:15:42Z</time>
      </trkpt>
      <trkpt lat="48.61714" lon="1.9701">
        <ele>109.3</ele>
        <time>2022-10-27T08:15:48Z</time>
      </trkpt>
      <trkpt lat="48.61704" lon="1.97007">
        <ele>109.1</ele>
        <time>2022-10-27T08:15:54Z</time>
      </trkpt>
      <trkpt lat="48.61695" lon="1.97008">
        <ele>108.7</ele>
        <time>2022-10-27T08:16:00Z</time>
      </trkpt>
      <trkpt lat="48.61685" lon="1.97005">
        <ele>108.6</ele>
        <time>2022-10-27T08:16:07Z</time>
      </trkpt>
      <trkpt lat="48.61677" lon="1.97">
        <ele>108.4</ele>
        <time>2022-10-27T08:16:14Z</time>
      </trkpt>
      <trkpt lat="48.61668" lon="1.96998">
        <ele>108.1</ele>
        <time>2022-10-27T08:16:21Z</time>
      </trkpt>
      <trkpt lat="48.61658" lon="1.96997">
        <ele>107.8</ele>
        <time>2022-10-27T08:16:29Z</time>
      </trkpt>
      <trkpt lat="48.61649" lon="1.96996">
        <ele>107.5</ele>
        <time>2022-10-27T08:16:36Z</time>
      </trkpt>
      <trkpt lat="48.61641" lon="1.96994">
        <ele>107.3</ele>
        <time>2022-10-27T08:16:43Z</time>
      </trkpt>
      <trkpt lat="48.61631" lon="1.96998">
        <ele>106.8</ele>
        <time>2022-10-27T08:16:49Z</time>
      </trkpt>
      <trkpt lat="48.61621" lon="1.96996">
        <ele>106.5</ele>
        <time>2022-10-27T08:16:56Z</time>
      </trkpt>
      <trkpt lat="48.61611" lon="1.96993">
        <ele>106.2</ele>
        <time>2022-10-27T08:17:03Z</time>
      </trkpt>
      <trkpt lat="48.61601" lon="1.96991">
        <ele>105.8</ele>
        <time>2022-10-27T08:17:09Z</time>
      </trkpt>
      <trkpt lat="48.61591" lon="1.96989">
        <ele>105.4</ele>
        <time>2022-10-27T08:17:16Z</time>
      </trkpt>
      <trkpt lat="48.61581" lon="1.96991">
        <ele>104.8</ele>
        <time>2022-10-27T08:17:22Z</time>
      </trkpt>
      <trkpt lat="48.61572" lon="1.96991">
        <ele>104.3</ele>
        <time>2022-10-27T08:17:28Z</time>
      </trkpt>
      <trkpt lat="48.61562" lon="1.9699">
        <ele>103.7</ele>
        <time>2022-10-27T08:17:36Z</time>
      </trkpt>
      <trkpt lat="48.61551" lon="1.96993">
        <ele>103.1</ele>
        <time>2022-10-27T08:17:43Z</time>
      </trkpt>
      <trkpt lat="48.61542" lon="1.96998">
        <ele>102.6</ele>
        <time>2022-10-27T08:17:49Z</time>
      </trkpt>
      <trkpt lat="48.61532" lon="1.97">
        <ele>102.2</ele>
        <time>2022-10-27T08:17:57Z</time>
      </trkpt>
      <trkpt lat="48.61523" lon="1.97003">
        <ele>102</ele>
        <time>2022-10-27T08:18:06Z</time>
      </trkpt>
      <trkpt lat="48.61514" lon="1.97007">
        <ele>102</ele>
        <time>2022-10-27T08:18:14Z</time>
      </trkpt>
      <trkpt lat="48.61505" lon="1.97013">
        <ele>102</ele>
        <time>2022-10-27T08:18:21Z</time>
      </trkpt>
      <trkpt lat="48.61497" lon="1.97022">
        <ele>102</ele>
        <time>2022-10-27T08:18:28Z</time>
      </trkpt>
      <trkpt lat="48.6149" lon="1.97033">
        <ele>102</ele>
        <time>2022-10-27T08:18:36Z</time>
      </trkpt>
      <trkpt lat="48.61483" lon="1.97042">
        <ele>102</ele>
        <time>2022-10-27T08:18:43Z</time>
      </trkpt>
      <trkpt lat="48.61476" lon="1.97054">
        <ele>102</ele>
        <time>2022-10-27T08:18:51Z</time>
      </trkpt>
      <trkpt lat="48.61468" lon="1.97065">
        <ele>102</ele>
        <time>2022-10-27T08:18:57Z</time>
      </trkpt>
      <trkpt lat="48.61461" lon="1.97074">
        <ele>102</ele>
        <time>2022-10-27T08:19:03Z</time>
      </trkpt>
      <trkpt lat="48.61452" lon="1.97082">
        <ele>102</ele>
        <time>2022-10-27T08:19:09Z</time>
      </trkpt>
      <trkpt lat="48.61445" lon="1.97091">
        <ele>101.7</ele>
        <time>2022-10-27T08:19:16Z</time>
      </trkpt>
      <trkpt lat="48.61438" lon="1.971">
        <ele>101.3</ele>
        <time>2022-10-27T08:19:23Z</time>
      </trkpt>
      <trkpt lat="48.61431" lon="1.97109">
        <ele>101</ele>
        <time>2022-10-27T08:19:29Z</time>
      </trkpt>
      <trkpt lat="48.61424" lon="1.9712">
        <ele>101</ele>
        <time>2022-10-27T08:19:35Z</time>
      </trkpt>
      <trkpt lat="48.61416" lon="1.97128">
        <ele>101</ele>
        <time>2022-10-27T08:19:41Z</time>
      </trkpt>
      <trkpt lat="48.61408" lon="1.97137">
        <ele>101</ele>
        <time>2022-10-27T08:19:47Z</time>
      </trkpt>
      <trkpt lat="48.61399" lon="1.97144">
        <ele>101</ele>
        <time>2022-10-27T08:19:53Z</time>
      </trkpt>
      <trkpt lat="48.6139" lon="1.9715">
        <ele>101</ele>
        <time>2022-10-27T08:20:00Z</time>
      </trkpt>
      <trkpt lat="48.61381" lon="1.97155">
        <ele>100.8</ele>
        <time>2022-10-27T08:20:06Z</time>
      </trkpt>
      <trkpt lat="48.6137" lon="1.97158">
        <ele>100.5</ele>
        <time>2022-10-27T08:20:12Z</time>
      </trkpt>
      <trkpt lat="48.6136" lon="1.97158">
        <ele>100.3</ele>
        <time>2022-10-27T08:20:18Z</time>
      </trkpt>
      <trkpt lat="48.61351" lon="1.97164">
        <ele>100.1</ele>
        <time>2022-10-27T08:20:23Z</time>
      </trkpt>
      <trkpt lat="48.61341" lon="1.9716">
        <ele>100.1</ele>
        <time>2022-10-27T08:20:29Z</time>
      </trkpt>
      <trkpt lat="48.61332" lon="1.97157">
        <ele>100</ele>
        <time>2022-10-27T08:20:35Z</time>
      </trkpt>
      <trkpt lat="48.61322" lon="1.97154">
        <ele>100</ele>
        <time>2022-10-27T08:20:42Z</time>
      </trkpt>
      <trkpt lat="48.61313" lon="1.97154">
        <ele>100</ele>
        <time>2022-10-27T08:20:49Z</time>
      </trkpt>
      <trkpt lat="48.61304" lon="1.97148">
        <ele>100</ele>
        <time>2022-10-27T08:20:56Z</time>
      </trkpt>
      <trkpt lat="48.61295" lon="1.97143">
        <ele>100</ele>
        <time>2022-10-27T08:21:03Z</time>
      </trkpt>
      <trkpt lat="48.61285" lon="1.97143">
        <ele>100</ele>
        <time>2022-10-27T08:21:12Z</time>
      </trkpt>
      <trkpt lat="48.61275" lon="1.97142">
        <ele>100</ele>
        <time>2022-10-27T08:21:21Z</time>
      </trkpt>
      <trkpt lat="48.61266" lon="1.97143">
        <ele>100</ele>
        <time>2022-10-27T08:21:31Z</time>
      </trkpt>
      <trkpt lat="48.61258" lon="1.97139">
        <ele>100</ele>
        <time>2022-10-27T08:23:24Z</time>
      </trkpt>
      <trkpt lat="48.61248" lon="1.97136">
        <ele>100.2</ele>
        <time>2022-10-27T08:23:52Z</time>
      </trkpt>
      <trkpt lat="48.61242" lon="1.97147">
        <ele>100.2</ele>
        <time>2022-10-27T08:24:42Z</time>
      </trkpt>
      <trkpt lat="48.61233" lon="1.97151">
        <ele>100.3</ele>
        <time>2022-10-27T08:24:48Z</time>
      </trkpt>
      <trkpt lat="48.61223" lon="1.97152">
        <ele>100.5</ele>
        <time>2022-10-27T08:24:59Z</time>
      </trkpt>
      <trkpt lat="48.61213" lon="1.97152">
        <ele>100.7</ele>
        <time>2022-10-27T08:25:06Z</time>
      </trkpt>
      <trkpt lat="48.61204" lon="1.97153">
        <ele>100.8</ele>
        <time>2022-10-27T08:25:15Z</time>
      </trkpt>
      <trkpt lat="48.61195" lon="1.97152">
        <ele>101</ele>
        <time>2022-10-27T08:25:23Z</time>
      </trkpt>
      <trkpt lat="48.61185" lon="1.97155">
        <ele>101.1</ele>
        <time>2022-10-27T08:25:31Z</time>
      </trkpt>
      <trkpt lat="48.61175" lon="1.97155">
        <ele>101.3</ele>
        <time>2022-10-27T08:25:38Z</time>
      </trkpt>
      <trkpt lat="48.61165" lon="1.97149">
        <ele>101.7</ele>
        <time>2022-10-27T08:25:44Z</time>
      </trkpt>
      <trkpt lat="48.61155" lon="1.97146">
        <ele>101.8</ele>
        <time>2022-10-27T08:25:51Z</time>
      </trkpt>
      <trkpt lat="48.61146" lon="1.97145">
        <ele>101.9</ele>
        <time>2022-10-27T08:25:58Z</time>
      </trkpt>
      <trkpt lat="48.61136" lon="1.97147">
        <ele>102</ele>
        <time>2022-10-27T08:26:04Z</time>
      </trkpt>
      <trkpt lat="48.61126" lon="1.97147">
        <ele>102</ele>
        <time>2022-10-27T08:26:12Z</time>
      </trkpt>
      <trkpt lat="48.61116" lon="1.97146">
        <ele>102</ele>
        <time>2022-10-27T08:26:20Z</time>
      </trkpt>
      <trkpt lat="48.61107" lon="1.97148">
        <ele>102</ele>
        <time>2022-10-27T08:26:28Z</time>
      </trkpt>
      <trkpt lat="48.61097" lon="1.97149">
        <ele>102</ele>
        <time>2022-10-27T08:26:36Z</time>
      </trkpt>
      <trkpt lat="48.61089" lon="1.97153">
        <ele>102</ele>
        <time>2022-10-27T08:26:43Z</time>
      </trkpt>
      <trkpt lat="48.6108" lon="1.97159">
        <ele>102</ele>
        <time>2022-10-27T08:26:50Z</time>
      </trkpt>
      <trkpt lat="48.6107" lon="1.97162">
        <ele>102</ele>
        <time>2022-10-27T08:26:56Z</time>
      </trkpt>
      <trkpt lat="48.61061" lon="1.97166">
        <ele>102</ele>
        <time>2022-10-27T08:27:03Z</time>
      </trkpt>
      <trkpt lat="48.61052" lon="1.97168">
        <ele>102</ele>
        <time>2022-10-27T08:27:09Z</time>
      </trkpt>
      <trkpt lat="48.61042" lon="1.97172">
        <ele>102</ele>
        <time>2022-10-27T08:27:16Z</time>
      </trkpt>
      <trkpt lat="48.61032" lon="1.97176">
        <ele>102</ele>
        <time>2022-10-27T08:27:23Z</time>
      </trkpt>
      <trkpt lat="48.61022" lon="1.97176">
        <ele>102.2</ele>
        <time>2022-10-27T08:27:30Z</time>
      </trkpt>
      <trkpt lat="48.61017" lon="1.97188">
        <ele>102.4</ele>
        <time>2022-10-27T08:27:44Z</time>
      </trkpt>
      <trkpt lat="48.61008" lon="1.97188">
        <ele>102.7</ele>
        <time>2022-10-27T08:27:53Z</time>
      </trkpt>
      <trkpt lat="48.61001" lon="1.97199">
        <ele>103</ele>
        <time>2022-10-27T08:28:00Z</time>
      </trkpt>
      <trkpt lat="48.60993" lon="1.97208">
        <ele>103</ele>
        <time>2022-10-27T08:28:08Z</time>
      </trkpt>
      <trkpt lat="48.60986" lon="1.97217">
        <ele>103</ele>
        <time>2022-10-27T08:28:15Z</time>
      </trkpt>
      <trkpt lat="48.60978" lon="1.97227">
        <ele>103</ele>
        <time>2022-10-27T08:28:26Z</time>
      </trkpt>
      <trkpt lat="48.60969" lon="1.97233">
        <ele>103</ele>
        <time>2022-10-27T08:28:33Z</time>
      </trkpt>
      <trkpt lat="48.60962" lon="1.97241">
        <ele>103</ele>
        <time>2022-10-27T08:28:42Z</time>
      </trkpt>
      <trkpt lat="48.60953" lon="1.97248">
        <ele>103</ele>
        <time>2022-10-27T08:28:49Z</time>
      </trkpt>
      <trkpt lat="48.60943" lon="1.97253">
        <ele>103</ele>
        <time>2022-10-27T08:28:56Z</time>
      </trkpt>
      <trkpt lat="48.60935" lon="1.97257">
        <ele>103</ele>
        <time>2022-10-27T08:29:03Z</time>
      </trkpt>
      <trkpt lat="48.60926" lon="1.97265">
        <ele>103</ele>
        <time>2022-10-27T08:29:11Z</time>
      </trkpt>
      <trkpt lat="48.60917" lon="1.97272">
        <ele>103</ele>
        <time>2022-10-27T08:29:19Z</time>
      </trkpt>
      <trkpt lat="48.60909" lon="1.97283">
        <ele>103</ele>
        <time>2022-10-27T08:29:26Z</time>
      </trkpt>
      <trkpt lat="48.60902" lon="1.97292">
        <ele>103</ele>
        <time>2022-10-27T08:29:33Z</time>
      </trkpt>
      <trkpt lat="48.60896" lon="1.97302">
        <ele>103</ele>
        <time>2022-10-27T08:29:40Z</time>
      </trkpt>
      <trkpt lat="48.60889" lon="1.97313">
        <ele>103</ele>
        <time>2022-10-27T08:29:47Z</time>
      </trkpt>
      <trkpt lat="48.60882" lon="1.97324">
        <ele>103</ele>
        <time>2022-10-27T08:29:54Z</time>
      </trkpt>
      <trkpt lat="48.60876" lon="1.97335">
        <ele>103</ele>
        <time>2022-10-27T08:30:02Z</time>
      </trkpt>
      <trkpt lat="48.60869" lon="1.97346">
        <ele>103</ele>
        <time>2022-10-27T08:30:09Z</time>
      </trkpt>
      <trkpt lat="48.60863" lon="1.97355">
        <ele>103</ele>
        <time>2022-10-27T08:30:16Z</time>
      </trkpt>
      <trkpt lat="48.60857" lon="1.97367">
        <ele>103.2</ele>
        <time>2022-10-27T08:30:23Z</time>
      </trkpt>
      <trkpt lat="48.60849" lon="1.97376">
        <ele>103.4</ele>
        <time>2022-10-27T08:30:30Z</time>
      </trkpt>
      <trkpt lat="48.60842" lon="1.97387">
        <ele>103.7</ele>
        <time>2022-10-27T08:30:38Z</time>
      </trkpt>
      <trkpt lat="48.60834" lon="1.97395">
        <ele>104</ele>
        <time>2022-10-27T08:30:45Z</time>
      </trkpt>
      <trkpt lat="48.60825" lon="1.97402">
        <ele>104</ele>
        <time>2022-10-27T08:30:53Z</time>
      </trkpt>
      <trkpt lat="48.60817" lon="1.97411">
        <ele>104</ele>
        <time>2022-10-27T08:31:00Z</time>
      </trkpt>
      <trkpt lat="48.6081" lon="1.97421">
        <ele>104.1</ele>
        <time>2022-10-27T08:31:08Z</time>
      </trkpt>
      <trkpt lat="48.60803" lon="1.97431">
        <ele>104.6</ele>
        <time>2022-10-27T08:31:16Z</time>
      </trkpt>
      <trkpt lat="48.60795" lon="1.9744">
        <ele>104.9</ele>
        <time>2022-10-27T08:31:24Z</time>
      </trkpt>
      <trkpt lat="48.60786" lon="1.97444">
        <ele>105</ele>
        <time>2022-10-27T08:31:31Z</time>
      </trkpt>
      <trkpt lat="48.60777" lon="1.97444">
        <ele>105</ele>
        <time>2022-10-27T08:31:38Z</time>
      </trkpt>
      <trkpt lat="48.60769" lon="1.9745">
        <ele>105</ele>
        <time>2022-10-27T08:31:46Z</time>
      </trkpt>
      <trkpt lat="48.60761" lon="1.97457">
        <ele>105</ele>
        <time>2022-10-27T08:31:59Z</time>
      </trkpt>
      <trkpt lat="48.60752" lon="1.97462">
        <ele>105</ele>
        <time>2022-10-27T08:32:07Z</time>
      </trkpt>
      <trkpt lat="48.60744" lon="1.97467">
        <ele>105.2</ele>
        <time>2022-10-27T08:32:14Z</time>
      </trkpt>
      <trkpt lat="48.60735" lon="1.97474">
        <ele>105.6</ele>
        <time>2022-10-27T08:32:22Z</time>
      </trkpt>
      <trkpt lat="48.60726" lon="1.97481">
        <ele>105.9</ele>
        <time>2022-10-27T08:32:31Z</time>
      </trkpt>
      <trkpt lat="48.60716" lon="1.97484">
        <ele>106</ele>
        <time>2022-10-27T08:32:36Z</time>
      </trkpt>
      <trkpt lat="48.60707" lon="1.97484">
        <ele>106</ele>
        <time>2022-10-27T08:32:41Z</time>
      </trkpt>
      <trkpt lat="48.60697" lon="1.97484">
        <ele>106</ele>
        <time>2022-10-27T08:32:46Z</time>
      </trkpt>
      <trkpt lat="48.60688" lon="1.97486">
        <ele>106.2</ele>
        <time>2022-10-27T08:32:51Z</time>
      </trkpt>
      <trkpt lat="48.60678" lon="1.97484">
        <ele>106.6</ele>
        <time>2022-10-27T08:32:57Z</time>
      </trkpt>
      <trkpt lat="48.60669" lon="1.97478">
        <ele>106.9</ele>
        <time>2022-10-27T08:33:04Z</time>
      </trkpt>
      <trkpt lat="48.60661" lon="1.97469">
        <ele>107.4</ele>
        <time>2022-10-27T08:33:10Z</time>
      </trkpt>
      <trkpt lat="48.60654" lon="1.9746">
        <ele>107.9</ele>
        <time>2022-10-27T08:33:16Z</time>
      </trkpt>
      <trkpt lat="48.60647" lon="1.97451">
        <ele>108.4</ele>
        <time>2022-10-27T08:33:22Z</time>
      </trkpt>
      <trkpt lat="48.60639" lon="1.97444">
        <ele>109</ele>
        <time>2022-10-27T08:33:28Z</time>
      </trkpt>
      <trkpt lat="48.6063" lon="1.97435">
        <ele>109.3</ele>
        <time>2022-10-27T08:33:35Z</time>
      </trkpt>
      <trkpt lat="48.60622" lon="1.97428">
        <ele>109.6</ele>
        <time>2022-10-27T08:33:42Z</time>
      </trkpt>
      <trkpt lat="48.60614" lon="1.97417">
        <ele>109.9</ele>
        <time>2022-10-27T08:33:49Z</time>
      </trkpt>
      <trkpt lat="48.60608" lon="1.97405">
        <ele>110.1</ele>
        <time>2022-10-27T08:33:56Z</time>
      </trkpt>
      <trkpt lat="48.60601" lon="1.97394">
        <ele>110.3</ele>
        <time>2022-10-27T08:34:03Z</time>
      </trkpt>
      <trkpt lat="48.60596" lon="1.97381">
        <ele>110.7</ele>
        <time>2022-10-27T08:34:10Z</time>
      </trkpt>
      <trkpt lat="48.6059" lon="1.97369">
        <ele>110.9</ele>
        <time>2022-10-27T08:34:17Z</time>
      </trkpt>
      <trkpt lat="48.60583" lon="1.97359">
        <ele>111.1</ele>
        <time>2022-10-27T08:34:24Z</time>
      </trkpt>
      <trkpt lat="48.60576" lon="1.9735">
        <ele>111.6</ele>
        <time>2022-10-27T08:34:30Z</time>
      </trkpt>
      <trkpt lat="48.60569" lon="1.97341">
        <ele>111.9</ele>
        <time>2022-10-27T08:34:37Z</time>
      </trkpt>
      <trkpt lat="48.6056" lon="1.97333">
        <ele>112</ele>
        <time>2022-10-27T08:34:45Z</time>
      </trkpt>
      <trkpt lat="48.60551" lon="1.97326">
        <ele>112.2</ele>
        <time>2022-10-27T08:34:52Z</time>
      </trkpt>
      <trkpt lat="48.60542" lon="1.97321">
        <ele>112.5</ele>
        <time>2022-10-27T08:35:00Z</time>
      </trkpt>
      <trkpt lat="48.60532" lon="1.97316">
        <ele>112.8</ele>
        <time>2022-10-27T08:35:06Z</time>
      </trkpt>
      <trkpt lat="48.60524" lon="1.97309">
        <ele>113</ele>
        <time>2022-10-27T08:35:12Z</time>
      </trkpt>
      <trkpt lat="48.60515" lon="1.97306">
        <ele>113</ele>
        <time>2022-10-27T08:35:18Z</time>
      </trkpt>
      <trkpt lat="48.60504" lon="1.97305">
        <ele>113</ele>
        <time>2022-10-27T08:35:24Z</time>
      </trkpt>
      <trkpt lat="48.60496" lon="1.973">
        <ele>113.3</ele>
        <time>2022-10-27T08:35:33Z</time>
      </trkpt>
      <trkpt lat="48.60485" lon="1.97298">
        <ele>113.7</ele>
        <time>2022-10-27T08:35:42Z</time>
      </trkpt>
      <trkpt lat="48.60476" lon="1.97294">
        <ele>113.9</ele>
        <time>2022-10-27T08:35:48Z</time>
      </trkpt>
      <trkpt lat="48.60468" lon="1.97289">
        <ele>114.1</ele>
        <time>2022-10-27T08:35:54Z</time>
      </trkpt>
      <trkpt lat="48.60459" lon="1.97282">
        <ele>114.4</ele>
        <time>2022-10-27T08:36:01Z</time>
      </trkpt>
      <trkpt lat="48.60451" lon="1.97272">
        <ele>115</ele>
        <time>2022-10-27T08:36:07Z</time>
      </trkpt>
      <trkpt lat="48.60442" lon="1.97266">
        <ele>115.4</ele>
        <time>2022-10-27T08:36:13Z</time>
      </trkpt>
      <trkpt lat="48.60433" lon="1.9726">
        <ele>115.7</ele>
        <time>2022-10-27T08:36:19Z</time>
      </trkpt>
      <trkpt lat="48.60424" lon="1.97254">
        <ele>115.8</ele>
        <time>2022-10-27T08:36:26Z</time>
      </trkpt>
      <trkpt lat="48.60416" lon="1.97248">
        <ele>116.1</ele>
        <time>2022-10-27T08:36:32Z</time>
      </trkpt>
      <trkpt lat="48.60409" lon="1.97239">
        <ele>116.4</ele>
        <time>2022-10-27T08:36:38Z</time>
      </trkpt>
      <trkpt lat="48.60401" lon="1.9723">
        <ele>116.7</ele>
        <time>2022-10-27T08:36:45Z</time>
      </trkpt>
      <trkpt lat="48.60393" lon="1.9722">
        <ele>117.1</ele>
        <time>2022-10-27T08:36:52Z</time>
      </trkpt>
      <trkpt lat="48.60385" lon="1.97208">
        <ele>117.5</ele>
        <time>2022-10-27T08:36:59Z</time>
      </trkpt>
      <trkpt lat="48.60381" lon="1.97196">
        <ele>118</ele>
        <time>2022-10-27T08:37:05Z</time>
      </trkpt>
      <trkpt lat="48.60375" lon="1.97184">
        <ele>118.4</ele>
        <time>2022-10-27T08:37:11Z</time>
      </trkpt>
      <trkpt lat="48.60369" lon="1.97174">
        <ele>118.4</ele>
        <time>2022-10-27T08:37:17Z</time>
      </trkpt>
      <trkpt lat="48.60362" lon="1.97163">
        <ele>118.2</ele>
        <time>2022-10-27T08:37:24Z</time>
      </trkpt>
      <trkpt lat="48.60354" lon="1.97154">
        <ele>118.6</ele>
        <time>2022-10-27T08:37:31Z</time>
      </trkpt>
      <trkpt lat="48.60348" lon="1.97142">
        <ele>118.9</ele>
        <time>2022-10-27T08:37:37Z</time>
      </trkpt>
      <trkpt lat="48.60341" lon="1.97134">
        <ele>119.1</ele>
        <time>2022-10-27T08:37:46Z</time>
      </trkpt>
      <trkpt lat="48.60334" lon="1.97123">
        <ele>119</ele>
        <time>2022-10-27T08:37:53Z</time>
      </trkpt>
      <trkpt lat="48.60328" lon="1.97112">
        <ele>119.2</ele>
        <time>2022-10-27T08:38:04Z</time>
      </trkpt>
      <trkpt lat="48.60324" lon="1.971">
        <ele>119.6</ele>
        <time>2022-10-27T08:38:58Z</time>
      </trkpt>
      <trkpt lat="48.60319" lon="1.97089">
        <ele>119.9</ele>
        <time>2022-10-27T08:40:10Z</time>
      </trkpt>
      <trkpt lat="48.60316" lon="1.97076">
        <ele>120.1</ele>
        <time>2022-10-27T08:40:18Z</time>
      </trkpt>
      <trkpt lat="48.6031" lon="1.97064">
        <ele>120.1</ele>
        <time>2022-10-27T08:40:25Z</time>
      </trkpt>
      <trkpt lat="48.60305" lon="1.97051">
        <ele>120</ele>
        <time>2022-10-27T08:40:32Z</time>
      </trkpt>
      <trkpt lat="48.60297" lon="1.97042">
        <ele>120.5</ele>
        <time>2022-10-27T08:40:39Z</time>
      </trkpt>
      <trkpt lat="48.60287" lon="1.97045">
        <ele>121</ele>
        <time>2022-10-27T08:40:48Z</time>
      </trkpt>
      <trkpt lat="48.60283" lon="1.97057">
        <ele>121.6</ele>
        <time>2022-10-27T08:41:00Z</time>
      </trkpt>
      <trkpt lat="48.60278" lon="1.97069">
        <ele>122</ele>
        <time>2022-10-27T08:41:10Z</time>
      </trkpt>
      <trkpt lat="48.60274" lon="1.97082">
        <ele>122.3</ele>
        <time>2022-10-27T08:41:18Z</time>
      </trkpt>
      <trkpt lat="48.60269" lon="1.97095">
        <ele>123.1</ele>
        <time>2022-10-27T08:41:26Z</time>
      </trkpt>
      <trkpt lat="48.60265" lon="1.97108">
        <ele>123.8</ele>
        <time>2022-10-27T08:41:34Z</time>
      </trkpt>
      <trkpt lat="48.6026" lon="1.97122">
        <ele>124.3</ele>
        <time>2022-10-27T08:41:43Z</time>
      </trkpt>
      <trkpt lat="48.60253" lon="1.97133">
        <ele>124.8</ele>
        <time>2022-10-27T08:41:50Z</time>
      </trkpt>
      <trkpt lat="48.60246" lon="1.97144">
        <ele>125.8</ele>
        <time>2022-10-27T08:41:58Z</time>
      </trkpt>
      <trkpt lat="48.60242" lon="1.97158">
        <ele>126.8</ele>
        <time>2022-10-27T08:42:06Z</time>
      </trkpt>
      <trkpt lat="48.60237" lon="1.97171">
        <ele>127.9</ele>
        <time>2022-10-27T08:42:15Z</time>
      </trkpt>
      <trkpt lat="48.60233" lon="1.97184">
        <ele>128.8</ele>
        <time>2022-10-27T08:42:23Z</time>
      </trkpt>
      <trkpt lat="48.60229" lon="1.97196">
        <ele>129.9</ele>
        <time>2022-10-27T08:42:33Z</time>
      </trkpt>
      <trkpt lat="48.60225" lon="1.97209">
        <ele>130.6</ele>
        <time>2022-10-27T08:42:44Z</time>
      </trkpt>
      <trkpt lat="48.60219" lon="1.97221">
        <ele>131.8</ele>
        <time>2022-10-27T08:42:57Z</time>
      </trkpt>
      <trkpt lat="48.60212" lon="1.97229">
        <ele>134.2</ele>
        <time>2022-10-27T08:43:06Z</time>
      </trkpt>
      <trkpt lat="48.60205" lon="1.97239">
        <ele>136.6</ele>
        <time>2022-10-27T08:43:17Z</time>
      </trkpt>
      <trkpt lat="48.60198" lon="1.97251">
        <ele>139</ele>
        <time>2022-10-27T08:43:27Z</time>
      </trkpt>
      <trkpt lat="48.60192" lon="1.9726">
        <ele>141</ele>
        <time>2022-10-27T08:43:35Z</time>
      </trkpt>
      <trkpt lat="48.60187" lon="1.97273">
        <ele>142.3</ele>
        <time>2022-10-27T08:43:46Z</time>
      </trkpt>
      <trkpt lat="48.6018" lon="1.97285">
        <ele>143.2</ele>
        <time>2022-10-27T08:43:55Z</time>
      </trkpt>
      <trkpt lat="48.60172" lon="1.97295">
        <ele>143.7</ele>
        <time>2022-10-27T08:44:02Z</time>
      </trkpt>
      <trkpt lat="48.60166" lon="1.97305">
        <ele>144</ele>
        <time>2022-10-27T08:44:13Z</time>
      </trkpt>
      <trkpt lat="48.6016" lon="1.97317">
        <ele>144.1</ele>
        <time>2022-10-27T08:44:24Z</time>
      </trkpt>
      <trkpt lat="48.60154" lon="1.97327">
        <ele>144.1</ele>
        <time>2022-10-27T08:45:12Z</time>
      </trkpt>
      <trkpt lat="48.6015" lon="1.9734">
        <ele>143.9</ele>
        <time>2022-10-27T08:45:25Z</time>
      </trkpt>
      <trkpt lat="48.60147" lon="1.97355">
        <ele>143.5</ele>
        <time>2022-10-27T08:45:34Z</time>
      </trkpt>
      <trkpt lat="48.60142" lon="1.97368">
        <ele>142.7</ele>
        <time>2022-10-27T08:45:42Z</time>
      </trkpt>
      <trkpt lat="48.60136" lon="1.97379">
        <ele>141.4</ele>
        <time>2022-10-27T08:45:48Z</time>
      </trkpt>
      <trkpt lat="48.60132" lon="1.97392">
        <ele>139.9</ele>
        <time>2022-10-27T08:45:55Z</time>
      </trkpt>
      <trkpt lat="48.60127" lon="1.97405">
        <ele>138</ele>
        <time>2022-10-27T08:46:03Z</time>
      </trkpt>
      <trkpt lat="48.60121" lon="1.97417">
        <ele>136</ele>
        <time>2022-10-27T08:46:10Z</time>
      </trkpt>
      <trkpt lat="48.60115" lon="1.97428">
        <ele>134.5</ele>
        <time>2022-10-27T08:46:17Z</time>
      </trkpt>
      <trkpt lat="48.6011" lon="1.9744">
        <ele>133.2</ele>
        <time>2022-10-27T08:46:25Z</time>
      </trkpt>
      <trkpt lat="48.60106" lon="1.97453">
        <ele>131.8</ele>
        <time>2022-10-27T08:46:37Z</time>
      </trkpt>
      <trkpt lat="48.60101" lon="1.97467">
        <ele>130.1</ele>
        <time>2022-10-27T08:46:44Z</time>
      </trkpt>
      <trkpt lat="48.60097" lon="1.9748">
        <ele>129</ele>
        <time>2022-10-27T08:46:52Z</time>
      </trkpt>
      <trkpt lat="48.60094" lon="1.97493">
        <ele>127.9</ele>
        <time>2022-10-27T08:46:58Z</time>
      </trkpt>
      <trkpt lat="48.60089" lon="1.97505">
        <ele>126.8</ele>
        <time>2022-10-27T08:47:04Z</time>
      </trkpt>
      <trkpt lat="48.60085" lon="1.97519">
        <ele>125.7</ele>
        <time>2022-10-27T08:47:11Z</time>
      </trkpt>
      <trkpt lat="48.6008" lon="1.97532">
        <ele>124.7</ele>
        <time>2022-10-27T08:47:17Z</time>
      </trkpt>
      <trkpt lat="48.60072" lon="1.97543">
        <ele>124</ele>
        <time>2022-10-27T08:47:23Z</time>
      </trkpt>
      <trkpt lat="48.60063" lon="1.97551">
        <ele>123.4</ele>
        <time>2022-10-27T08:47:29Z</time>
      </trkpt>
      <trkpt lat="48.60056" lon="1.97562">
        <ele>123</ele>
        <time>2022-10-27T08:47:36Z</time>
      </trkpt>
      <trkpt lat="48.60051" lon="1.97576">
        <ele>122.8</ele>
        <time>2022-10-27T08:47:45Z</time>
      </trkpt>
      <trkpt lat="48.60044" lon="1.97587">
        <ele>122.5</ele>
        <time>2022-10-27T08:47:52Z</time>
      </trkpt>
      <trkpt lat="48.60038" lon="1.97597">
        <ele>121.9</ele>
        <time>2022-10-27T08:48:00Z</time>
      </trkpt>
      <trkpt lat="48.60033" lon="1.97608">
        <ele>121.3</ele>
        <time>2022-10-27T08:48:09Z</time>
      </trkpt>
      <trkpt lat="48.60026" lon="1.97619">
        <ele>120.7</ele>
        <time>2022-10-27T08:48:27Z</time>
      </trkpt>
      <trkpt lat="48.6002" lon="1.97629">
        <ele>120.3</ele>
        <time>2022-10-27T08:48:33Z</time>
      </trkpt>
      <trkpt lat="48.60014" lon="1.97641">
        <ele>119.9</ele>
        <time>2022-10-27T08:48:40Z</time>
      </trkpt>
      <trkpt lat="48.60007" lon="1.97651">
        <ele>119.2</ele>
        <time>2022-10-27T08:48:46Z</time>
      </trkpt>
      <trkpt lat="48.6" lon="1.97662">
        <ele>118.4</ele>
        <time>2022-10-27T08:48:53Z</time>
      </trkpt>
      <trkpt lat="48.59995" lon="1.97673">
        <ele>117.7</ele>
        <time>2022-10-27T08:49:00Z</time>
      </trkpt>
      <trkpt lat="48.5999" lon="1.97685">
        <ele>117.1</ele>
        <time>2022-10-27T08:49:08Z</time>
      </trkpt>
      <trkpt lat="48.59985" lon="1.97697">
        <ele>116.5</ele>
        <time>2022-10-27T08:49:16Z</time>
      </trkpt>
      <trkpt lat="48.59977" lon="1.97705">
        <ele>116.4</ele>
        <time>2022-10-27T08:50:02Z</time>
      </trkpt>
      <trkpt lat="48.59968" lon="1.97701">
        <ele>116.4</ele>
        <time>2022-10-27T08:50:10Z</time>
      </trkpt>
      <trkpt lat="48.59959" lon="1.97697">
        <ele>116.6</ele>
        <time>2022-10-27T08:50:20Z</time>
      </trkpt>
      <trkpt lat="48.59951" lon="1.97691">
        <ele>116.8</ele>
        <time>2022-10-27T08:50:27Z</time>
      </trkpt>
      <trkpt lat="48.59941" lon="1.97688">
        <ele>117.1</ele>
        <time>2022-10-27T08:50:36Z</time>
      </trkpt>
      <trkpt lat="48.59932" lon="1.97684">
        <ele>117.5</ele>
        <time>2022-10-27T08:50:45Z</time>
      </trkpt>
      <trkpt lat="48.59922" lon="1.97686">
        <ele>117.8</ele>
        <time>2022-10-27T08:50:55Z</time>
      </trkpt>
      <trkpt lat="48.59913" lon="1.9769">
        <ele>118</ele>
        <time>2022-10-27T08:51:03Z</time>
      </trkpt>
      <trkpt lat="48.59904" lon="1.9769">
        <ele>118</ele>
        <time>2022-10-27T08:51:12Z</time>
      </trkpt>
      <trkpt lat="48.59894" lon="1.97695">
        <ele>118</ele>
        <time>2022-10-27T08:51:19Z</time>
      </trkpt>
      <trkpt lat="48.59884" lon="1.97695">
        <ele>118.2</ele>
        <time>2022-10-27T08:51:25Z</time>
      </trkpt>
      <trkpt lat="48.59875" lon="1.97694">
        <ele>118.5</ele>
        <time>2022-10-27T08:51:31Z</time>
      </trkpt>
      <trkpt lat="48.59865" lon="1.97691">
        <ele>118.8</ele>
        <time>2022-10-27T08:51:38Z</time>
      </trkpt>
      <trkpt lat="48.59857" lon="1.97683">
        <ele>118.7</ele>
        <time>2022-10-27T08:51:46Z</time>
      </trkpt>
      <trkpt lat="48.59846" lon="1.9768">
        <ele>118.8</ele>
        <time>2022-10-27T08:51:53Z</time>
      </trkpt>
      <trkpt lat="48.59837" lon="1.97675">
        <ele>118.9</ele>
        <time>2022-10-27T08:52:00Z</time>
      </trkpt>
      <trkpt lat="48.59828" lon="1.97671">
        <ele>119.4</ele>
        <time>2022-10-27T08:52:07Z</time>
      </trkpt>
      <trkpt lat="48.59818" lon="1.97665">
        <ele>120.1</ele>
        <time>2022-10-27T08:52:15Z</time>
      </trkpt>
      <trkpt lat="48.5981" lon="1.97659">
        <ele>120.7</ele>
        <time>2022-10-27T08:52:22Z</time>
      </trkpt>
      <trkpt lat="48.598" lon="1.97654">
        <ele>121.4</ele>
        <time>2022-10-27T08:52:30Z</time>
      </trkpt>
      <trkpt lat="48.59793" lon="1.97646">
        <ele>121.9</ele>
        <time>2022-10-27T08:52:38Z</time>
      </trkpt>
      <trkpt lat="48.59785" lon="1.97641">
        <ele>122.5</ele>
        <time>2022-10-27T08:52:45Z</time>
      </trkpt>
      <trkpt lat="48.59775" lon="1.97636">
        <ele>123.2</ele>
        <time>2022-10-27T08:52:52Z</time>
      </trkpt>
      <trkpt lat="48.59766" lon="1.97629">
        <ele>123.7</ele>
        <time>2022-10-27T08:52:59Z</time>
      </trkpt>
      <trkpt lat="48.59758" lon="1.97621">
        <ele>124</ele>
        <time>2022-10-27T08:53:05Z</time>
      </trkpt>
      <trkpt lat="48.5975" lon="1.97612">
        <ele>124.1</ele>
        <time>2022-10-27T08:53:12Z</time>
      </trkpt>
      <trkpt lat="48.59741" lon="1.97603">
        <ele>124.6</ele>
        <time>2022-10-27T08:53:19Z</time>
      </trkpt>
      <trkpt lat="48.59732" lon="1.97597">
        <ele>125</ele>
        <time>2022-10-27T08:53:26Z</time>
      </trkpt>
      <trkpt lat="48.59723" lon="1.97591">
        <ele>125.2</ele>
        <time>2022-10-27T08:53:34Z</time>
      </trkpt>
      <trkpt lat="48.59714" lon="1.9759">
        <ele>125.9</ele>
        <time>2022-10-27T08:53:40Z</time>
      </trkpt>
      <trkpt lat="48.59705" lon="1.97585">
        <ele>126.3</ele>
        <time>2022-10-27T08:53:48Z</time>
      </trkpt>
      <trkpt lat="48.59696" lon="1.9758">
        <ele>126.8</ele>
        <time>2022-10-27T08:53:56Z</time>
      </trkpt>
      <trkpt lat="48.59688" lon="1.97572">
        <ele>127.3</ele>
        <time>2022-10-27T08:54:04Z</time>
      </trkpt>
      <trkpt lat="48.59679" lon="1.97568">
        <ele>128.1</ele>
        <time>2022-10-27T08:54:11Z</time>
      </trkpt>
      <trkpt lat="48.59672" lon="1.97559">
        <ele>128.6</ele>
        <time>2022-10-27T08:54:22Z</time>
      </trkpt>
      <trkpt lat="48.59663" lon="1.97553">
        <ele>129.2</ele>
        <time>2022-10-27T08:54:30Z</time>
      </trkpt>
      <trkpt lat="48.59653" lon="1.97547">
        <ele>129.7</ele>
        <time>2022-10-27T08:54:38Z</time>
      </trkpt>
      <trkpt lat="48.59645" lon="1.9754">
        <ele>130</ele>
        <time>2022-10-27T08:54:47Z</time>
      </trkpt>
      <trkpt lat="48.59635" lon="1.97536">
        <ele>130.5</ele>
        <time>2022-10-27T08:54:54Z</time>
      </trkpt>
      <trkpt lat="48.59626" lon="1.97532">
        <ele>130.7</ele>
        <time>2022-10-27T08:55:00Z</time>
      </trkpt>
      <trkpt lat="48.59617" lon="1.97528">
        <ele>130.8</ele>
        <time>2022-10-27T08:55:06Z</time>
      </trkpt>
      <trkpt lat="48.59608" lon="1.97523">
        <ele>130.9</ele>
        <time>2022-10-27T08:55:13Z</time>
      </trkpt>
      <trkpt lat="48.596" lon="1.97516">
        <ele>131</ele>
        <time>2022-10-27T08:55:21Z</time>
      </trkpt>
      <trkpt lat="48.59591" lon="1.97512">
        <ele>131.2</ele>
        <time>2022-10-27T08:55:28Z</time>
      </trkpt>
      <trkpt lat="48.59583" lon="1.97504">
        <ele>131.1</ele>
        <time>2022-10-27T08:55:38Z</time>
      </trkpt>
      <trkpt lat="48.59573" lon="1.97501">
        <ele>131.8</ele>
        <time>2022-10-27T08:55:45Z</time>
      </trkpt>
      <trkpt lat="48.59563" lon="1.97496">
        <ele>132.5</ele>
        <time>2022-10-27T08:55:53Z</time>
      </trkpt>
      <trkpt lat="48.59554" lon="1.97492">
        <ele>133.1</ele>
        <time>2022-10-27T08:56:00Z</time>
      </trkpt>
      <trkpt lat="48.59546" lon="1.97484">
        <ele>134</ele>
        <time>2022-10-27T08:56:08Z</time>
      </trkpt>
      <trkpt lat="48.59537" lon="1.97477">
        <ele>135</ele>
        <time>2022-10-27T08:56:15Z</time>
      </trkpt>
      <trkpt lat="48.59529" lon="1.97469">
        <ele>135.9</ele>
        <time>2022-10-27T08:56:24Z</time>
      </trkpt>
      <trkpt lat="48.59519" lon="1.97464">
        <ele>136.8</ele>
        <time>2022-10-27T08:56:32Z</time>
      </trkpt>
      <trkpt lat="48.5951" lon="1.97459">
        <ele>137.6</ele>
        <time>2022-10-27T08:56:40Z</time>
      </trkpt>
      <trkpt lat="48.59502" lon="1.97451">
        <ele>138.1</ele>
        <time>2022-10-27T08:56:48Z</time>
      </trkpt>
      <trkpt lat="48.59492" lon="1.97447">
        <ele>138.1</ele>
        <time>2022-10-27T08:56:55Z</time>
      </trkpt>
      <trkpt lat="48.59484" lon="1.97439">
        <ele>138</ele>
        <time>2022-10-27T08:57:04Z</time>
      </trkpt>
      <trkpt lat="48.5948" lon="1.97426">
        <ele>138</ele>
        <time>2022-10-27T08:57:14Z</time>
      </trkpt>
      <trkpt lat="48.59474" lon="1.97415">
        <ele>138</ele>
        <time>2022-10-27T08:57:20Z</time>
      </trkpt>
      <trkpt lat="48.59471" lon="1.97401">
        <ele>137.9</ele>
        <time>2022-10-27T08:57:26Z</time>
      </trkpt>
      <trkpt lat="48.59467" lon="1.97387">
        <ele>137.8</ele>
        <time>2022-10-27T08:57:34Z</time>
      </trkpt>
      <trkpt lat="48.59466" lon="1.97372">
        <ele>138.6</ele>
        <time>2022-10-27T08:57:42Z</time>
      </trkpt>
      <trkpt lat="48.59463" lon="1.97358">
        <ele>139.4</ele>
        <time>2022-10-27T08:57:48Z</time>
      </trkpt>
      <trkpt lat="48.5946" lon="1.97346">
        <ele>140.5</ele>
        <time>2022-10-27T08:57:57Z</time>
      </trkpt>
      <trkpt lat="48.59458" lon="1.97331">
        <ele>142.3</ele>
        <time>2022-10-27T08:58:07Z</time>
      </trkpt>
      <trkpt lat="48.59456" lon="1.97317">
        <ele>144.1</ele>
        <time>2022-10-27T08:58:17Z</time>
      </trkpt>
      <trkpt lat="48.59454" lon="1.97303">
        <ele>146</ele>
        <time>2022-10-27T08:58:31Z</time>
      </trkpt>
      <trkpt lat="48.59446" lon="1.97295">
        <ele>146.9</ele>
        <time>2022-10-27T08:58:39Z</time>
      </trkpt>
      <trkpt lat="48.5944" lon="1.97285">
        <ele>148.4</ele>
        <time>2022-10-27T08:58:47Z</time>
      </trkpt>
      <trkpt lat="48.59434" lon="1.97272">
        <ele>150.1</ele>
        <time>2022-10-27T08:58:54Z</time>
      </trkpt>
      <trkpt lat="48.5943" lon="1.97259">
        <ele>151.6</ele>
        <time>2022-10-27T08:59:01Z</time>
      </trkpt>
      <trkpt lat="48.59424" lon="1.97247">
        <ele>152.8</ele>
        <time>2022-10-27T08:59:08Z</time>
      </trkpt>
      <trkpt lat="48.59424" lon="1.97233">
        <ele>154.2</ele>
        <time>2022-10-27T08:59:15Z</time>
      </trkpt>
      <trkpt lat="48.59426" lon="1.97218">
        <ele>155.5</ele>
        <time>2022-10-27T08:59:24Z</time>
      </trkpt>
      <trkpt lat="48.5943" lon="1.97206">
        <ele>156.4</ele>
        <time>2022-10-27T08:59:32Z</time>
      </trkpt>
      <trkpt lat="48.59437" lon="1.97195">
        <ele>157.4</ele>
        <time>2022-10-27T08:59:39Z</time>
      </trkpt>
      <trkpt lat="48.59438" lon="1.9718">
        <ele>157.6</ele>
        <time>2022-10-27T08:59:47Z</time>
      </trkpt>
      <trkpt lat="48.59435" lon="1.97167">
        <ele>157.7</ele>
        <time>2022-10-27T08:59:53Z</time>
      </trkpt>
      <trkpt lat="48.59431" lon="1.97154">
        <ele>158</ele>
        <time>2022-10-27T09:00:01Z</time>
      </trkpt>
      <trkpt lat="48.59429" lon="1.97141">
        <ele>158.4</ele>
        <time>2022-10-27T09:00:09Z</time>
      </trkpt>
      <trkpt lat="48.59433" lon="1.97126">
        <ele>158.3</ele>
        <time>2022-10-27T09:00:16Z</time>
      </trkpt>
      <trkpt lat="48.59433" lon="1.97112">
        <ele>158</ele>
        <time>2022-10-27T09:00:22Z</time>
      </trkpt>
      <trkpt lat="48.59433" lon="1.97096">
        <ele>158</ele>
        <time>2022-10-27T09:00:29Z</time>
      </trkpt>
      <trkpt lat="48.59429" lon="1.97083">
        <ele>158</ele>
        <time>2022-10-27T09:00:36Z</time>
      </trkpt>
      <trkpt lat="48.59425" lon="1.9707">
        <ele>157.8</ele>
        <time>2022-10-27T09:00:43Z</time>
      </trkpt>
      <trkpt lat="48.59424" lon="1.97054">
        <ele>157.7</ele>
        <time>2022-10-27T09:00:50Z</time>
      </trkpt>
      <trkpt lat="48.59421" lon="1.9704">
        <ele>157.3</ele>
        <time>2022-10-27T09:00:57Z</time>
      </trkpt>
      <trkpt lat="48.59418" lon="1.97026">
        <ele>156.9</ele>
        <time>2022-10-27T09:01:05Z</time>
      </trkpt>
      <trkpt lat="48.59419" lon="1.97011">
        <ele>156.9</ele>
        <time>2022-10-27T09:01:11Z</time>
      </trkpt>
      <trkpt lat="48.59421" lon="1.96997">
        <ele>156.7</ele>
        <time>2022-10-27T09:01:18Z</time>
      </trkpt>
      <trkpt lat="48.59423" lon="1.96982">
        <ele>156.5</ele>
        <time>2022-10-27T09:01:26Z</time>
      </trkpt>
      <trkpt lat="48.59423" lon="1.96967">
        <ele>156.6</ele>
        <time>2022-10-27T09:01:34Z</time>
      </trkpt>
      <trkpt lat="48.59415" lon="1.96957">
        <ele>156.9</ele>
        <time>2022-10-27T09:01:43Z</time>
      </trkpt>
      <trkpt lat="48.5941" lon="1.96946">
        <ele>156.5</ele>
        <time>2022-10-27T09:01:49Z</time>
      </trkpt>
      <trkpt lat="48.594" lon="1.96946">
        <ele>155.8</ele>
        <time>2022-10-27T09:02:00Z</time>
      </trkpt>
      <trkpt lat="48.59409" lon="1.96943">
        <ele>156.4</ele>
        <time>2022-10-27T09:05:29Z</time>
      </trkpt>
      <trkpt lat="48.59407" lon="1.96929">
        <ele>156</ele>
        <time>2022-10-27T09:05:38Z</time>
      </trkpt>
      <trkpt lat="48.59405" lon="1.96916">
        <ele>155.6</ele>
        <time>2022-10-27T09:05:44Z</time>
      </trkpt>
      <trkpt lat="48.59403" lon="1.96903">
        <ele>155.5</ele>
        <time>2022-10-27T09:05:51Z</time>
      </trkpt>
      <trkpt lat="48.59403" lon="1.96887">
        <ele>155.5</ele>
        <time>2022-10-27T09:05:59Z</time>
      </trkpt>
      <trkpt lat="48.59409" lon="1.96876">
        <ele>155.6</ele>
        <time>2022-10-27T09:06:07Z</time>
      </trkpt>
      <trkpt lat="48.59415" lon="1.96865">
        <ele>155.9</ele>
        <time>2022-10-27T09:06:15Z</time>
      </trkpt>
      <trkpt lat="48.59424" lon="1.9686">
        <ele>155.1</ele>
        <time>2022-10-27T09:06:21Z</time>
      </trkpt>
      <trkpt lat="48.59434" lon="1.96857">
        <ele>154</ele>
        <time>2022-10-27T09:06:28Z</time>
      </trkpt>
      <trkpt lat="48.59441" lon="1.96848">
        <ele>153.2</ele>
        <time>2022-10-27T09:06:36Z</time>
      </trkpt>
      <trkpt lat="48.59444" lon="1.96833">
        <ele>153</ele>
        <time>2022-10-27T09:06:43Z</time>
      </trkpt>
      <trkpt lat="48.59443" lon="1.96819">
        <ele>152</ele>
        <time>2022-10-27T09:06:50Z</time>
      </trkpt>
      <trkpt lat="48.59439" lon="1.96806">
        <ele>151.2</ele>
        <time>2022-10-27T09:06:57Z</time>
      </trkpt>
      <trkpt lat="48.59432" lon="1.96794">
        <ele>150.4</ele>
        <time>2022-10-27T09:07:04Z</time>
      </trkpt>
      <trkpt lat="48.59427" lon="1.96782">
        <ele>149.4</ele>
        <time>2022-10-27T09:07:10Z</time>
      </trkpt>
      <trkpt lat="48.5942" lon="1.9677">
        <ele>148.5</ele>
        <time>2022-10-27T09:07:17Z</time>
      </trkpt>
      <trkpt lat="48.59414" lon="1.96759">
        <ele>147.5</ele>
        <time>2022-10-27T09:07:26Z</time>
      </trkpt>
      <trkpt lat="48.59411" lon="1.96745">
        <ele>146.4</ele>
        <time>2022-10-27T09:07:33Z</time>
      </trkpt>
      <trkpt lat="48.59412" lon="1.96731">
        <ele>145.5</ele>
        <time>2022-10-27T09:07:39Z</time>
      </trkpt>
      <trkpt lat="48.59414" lon="1.96717">
        <ele>144.7</ele>
        <time>2022-10-27T09:07:45Z</time>
      </trkpt>
      <trkpt lat="48.59412" lon="1.96703">
        <ele>144</ele>
        <time>2022-10-27T09:07:53Z</time>
      </trkpt>
      <trkpt lat="48.59406" lon="1.96691">
        <ele>143.1</ele>
        <time>2022-10-27T09:08:00Z</time>
      </trkpt>
      <trkpt lat="48.59407" lon="1.96677">
        <ele>142.6</ele>
        <time>2022-10-27T09:08:06Z</time>
      </trkpt>
      <trkpt lat="48.59412" lon="1.96666">
        <ele>142.6</ele>
        <time>2022-10-27T09:08:12Z</time>
      </trkpt>
      <trkpt lat="48.59417" lon="1.96655">
        <ele>142.6</ele>
        <time>2022-10-27T09:08:19Z</time>
      </trkpt>
      <trkpt lat="48.59424" lon="1.96645">
        <ele>142.5</ele>
        <time>2022-10-27T09:08:26Z</time>
      </trkpt>
      <trkpt lat="48.59427" lon="1.96632">
        <ele>142.2</ele>
        <time>2022-10-27T09:08:33Z</time>
      </trkpt>
      <trkpt lat="48.59431" lon="1.96617">
        <ele>142.1</ele>
        <time>2022-10-27T09:08:40Z</time>
      </trkpt>
      <trkpt lat="48.59435" lon="1.96604">
        <ele>142</ele>
        <time>2022-10-27T09:08:46Z</time>
      </trkpt>
      <trkpt lat="48.59443" lon="1.96596">
        <ele>142.3</ele>
        <time>2022-10-27T09:08:54Z</time>
      </trkpt>
      <trkpt lat="48.59449" lon="1.96583">
        <ele>142.3</ele>
        <time>2022-10-27T09:09:00Z</time>
      </trkpt>
      <trkpt lat="48.59454" lon="1.96571">
        <ele>142.2</ele>
        <time>2022-10-27T09:09:07Z</time>
      </trkpt>
      <trkpt lat="48.59459" lon="1.96559">
        <ele>142.1</ele>
        <time>2022-10-27T09:09:15Z</time>
      </trkpt>
      <trkpt lat="48.59463" lon="1.96544">
        <ele>142.2</ele>
        <time>2022-10-27T09:09:23Z</time>
      </trkpt>
      <trkpt lat="48.59469" lon="1.96534">
        <ele>142.7</ele>
        <time>2022-10-27T09:09:30Z</time>
      </trkpt>
      <trkpt lat="48.59474" lon="1.96521">
        <ele>143.3</ele>
        <time>2022-10-27T09:09:38Z</time>
      </trkpt>
      <trkpt lat="48.59481" lon="1.96511">
        <ele>144.4</ele>
        <time>2022-10-27T09:09:44Z</time>
      </trkpt>
      <trkpt lat="48.59488" lon="1.96502">
        <ele>145.8</ele>
        <time>2022-10-27T09:09:51Z</time>
      </trkpt>
      <trkpt lat="48.59494" lon="1.9649">
        <ele>146.9</ele>
        <time>2022-10-27T09:09:59Z</time>
      </trkpt>
      <trkpt lat="48.595" lon="1.96479">
        <ele>148</ele>
        <time>2022-10-27T09:10:06Z</time>
      </trkpt>
      <trkpt lat="48.59504" lon="1.96466">
        <ele>148.3</ele>
        <time>2022-10-27T09:10:14Z</time>
      </trkpt>
      <trkpt lat="48.59508" lon="1.96454">
        <ele>148.7</ele>
        <time>2022-10-27T09:10:22Z</time>
      </trkpt>
      <trkpt lat="48.59515" lon="1.96444">
        <ele>149.6</ele>
        <time>2022-10-27T09:10:30Z</time>
      </trkpt>
      <trkpt lat="48.59521" lon="1.96432">
        <ele>150.3</ele>
        <time>2022-10-27T09:10:38Z</time>
      </trkpt>
      <trkpt lat="48.59528" lon="1.96422">
        <ele>151.2</ele>
        <time>2022-10-27T09:10:45Z</time>
      </trkpt>
      <trkpt lat="48.59533" lon="1.96409">
        <ele>151.8</ele>
        <time>2022-10-27T09:10:53Z</time>
      </trkpt>
      <trkpt lat="48.59538" lon="1.96396">
        <ele>152.4</ele>
        <time>2022-10-27T09:11:02Z</time>
      </trkpt>
      <trkpt lat="48.59541" lon="1.96383">
        <ele>152.8</ele>
        <time>2022-10-27T09:11:09Z</time>
      </trkpt>
      <trkpt lat="48.59546" lon="1.96369">
        <ele>153.4</ele>
        <time>2022-10-27T09:11:16Z</time>
      </trkpt>
      <trkpt lat="48.59552" lon="1.96358">
        <ele>154.2</ele>
        <time>2022-10-27T09:11:23Z</time>
      </trkpt>
      <trkpt lat="48.59559" lon="1.96347">
        <ele>154.4</ele>
        <time>2022-10-27T09:11:30Z</time>
      </trkpt>
      <trkpt lat="48.59565" lon="1.96335">
        <ele>154.5</ele>
        <time>2022-10-27T09:11:37Z</time>
      </trkpt>
      <trkpt lat="48.59569" lon="1.96321">
        <ele>154</ele>
        <time>2022-10-27T09:11:44Z</time>
      </trkpt>
      <trkpt lat="48.59574" lon="1.96308">
        <ele>153.9</ele>
        <time>2022-10-27T09:11:53Z</time>
      </trkpt>
      <trkpt lat="48.59581" lon="1.96296">
        <ele>153.6</ele>
        <time>2022-10-27T09:12:01Z</time>
      </trkpt>
      <trkpt lat="48.59586" lon="1.96283">
        <ele>152.9</ele>
        <time>2022-10-27T09:12:10Z</time>
      </trkpt>
      <trkpt lat="48.59592" lon="1.96271">
        <ele>152</ele>
        <time>2022-10-27T09:12:18Z</time>
      </trkpt>
      <trkpt lat="48.59599" lon="1.96261">
        <ele>151.3</ele>
        <time>2022-10-27T09:12:26Z</time>
      </trkpt>
      <trkpt lat="48.59606" lon="1.9625">
        <ele>150.4</ele>
        <time>2022-10-27T09:12:33Z</time>
      </trkpt>
      <trkpt lat="48.59611" lon="1.96239">
        <ele>149.4</ele>
        <time>2022-10-27T09:12:41Z</time>
      </trkpt>
      <trkpt lat="48.59615" lon="1.96225">
        <ele>147.6</ele>
        <time>2022-10-27T09:12:50Z</time>
      </trkpt>
      <trkpt lat="48.59618" lon="1.96211">
        <ele>145.7</ele>
        <time>2022-10-27T09:12:58Z</time>
      </trkpt>
      <trkpt lat="48.59622" lon="1.96198">
        <ele>143.8</ele>
        <time>2022-10-27T09:13:06Z</time>
      </trkpt>
      <trkpt lat="48.59627" lon="1.96186">
        <ele>142.5</ele>
        <time>2022-10-27T09:13:13Z</time>
      </trkpt>
      <trkpt lat="48.59632" lon="1.96174">
        <ele>141</ele>
        <time>2022-10-27T09:13:19Z</time>
      </trkpt>
      <trkpt lat="48.59639" lon="1.96165">
        <ele>139.9</ele>
        <time>2022-10-27T09:13:27Z</time>
      </trkpt>
      <trkpt lat="48.59646" lon="1.96154">
        <ele>138.9</ele>
        <time>2022-10-27T09:13:35Z</time>
      </trkpt>
      <trkpt lat="48.59653" lon="1.96142">
        <ele>137.8</ele>
        <time>2022-10-27T09:13:43Z</time>
      </trkpt>
      <trkpt lat="48.59659" lon="1.9613">
        <ele>137.1</ele>
        <time>2022-10-27T09:13:50Z</time>
      </trkpt>
      <trkpt lat="48.59665" lon="1.96118">
        <ele>136.4</ele>
        <time>2022-10-27T09:13:56Z</time>
      </trkpt>
      <trkpt lat="48.5967" lon="1.96106">
        <ele>135.6</ele>
        <time>2022-10-27T09:14:03Z</time>
      </trkpt>
      <trkpt lat="48.59674" lon="1.96092">
        <ele>134.6</ele>
        <time>2022-10-27T09:14:10Z</time>
      </trkpt>
      <trkpt lat="48.59676" lon="1.96079">
        <ele>133.6</ele>
        <time>2022-10-27T09:14:17Z</time>
      </trkpt>
      <trkpt lat="48.5968" lon="1.96065">
        <ele>132.4</ele>
        <time>2022-10-27T09:14:26Z</time>
      </trkpt>
      <trkpt lat="48.59687" lon="1.96055">
        <ele>131.2</ele>
        <time>2022-10-27T09:14:32Z</time>
      </trkpt>
      <trkpt lat="48.59695" lon="1.96048">
        <ele>130.5</ele>
        <time>2022-10-27T09:14:37Z</time>
      </trkpt>
      <trkpt lat="48.59703" lon="1.96039">
        <ele>130</ele>
        <time>2022-10-27T09:14:43Z</time>
      </trkpt>
      <trkpt lat="48.59707" lon="1.96027">
        <ele>129.4</ele>
        <time>2022-10-27T09:14:50Z</time>
      </trkpt>
      <trkpt lat="48.59712" lon="1.96015">
        <ele>129.2</ele>
        <time>2022-10-27T09:14:57Z</time>
      </trkpt>
      <trkpt lat="48.59714" lon="1.95999">
        <ele>128.7</ele>
        <time>2022-10-27T09:15:05Z</time>
      </trkpt>
      <trkpt lat="48.59723" lon="1.9599">
        <ele>128.6</ele>
        <time>2022-10-27T09:15:13Z</time>
      </trkpt>
      <trkpt lat="48.5973" lon="1.95979">
        <ele>128.5</ele>
        <time>2022-10-27T09:15:20Z</time>
      </trkpt>
      <trkpt lat="48.59733" lon="1.95966">
        <ele>128.2</ele>
        <time>2022-10-27T09:15:27Z</time>
      </trkpt>
      <trkpt lat="48.59739" lon="1.95956">
        <ele>128</ele>
        <time>2022-10-27T09:15:33Z</time>
      </trkpt>
      <trkpt lat="48.59746" lon="1.95946">
        <ele>127.9</ele>
        <time>2022-10-27T09:15:40Z</time>
      </trkpt>
      <trkpt lat="48.59752" lon="1.95936">
        <ele>127.4</ele>
        <time>2022-10-27T09:15:48Z</time>
      </trkpt>
      <trkpt lat="48.59757" lon="1.95924">
        <ele>126.7</ele>
        <time>2022-10-27T09:15:55Z</time>
      </trkpt>
      <trkpt lat="48.59762" lon="1.9591">
        <ele>126.2</ele>
        <time>2022-10-27T09:16:02Z</time>
      </trkpt>
      <trkpt lat="48.59766" lon="1.95898">
        <ele>125.9</ele>
        <time>2022-10-27T09:16:08Z</time>
      </trkpt>
      <trkpt lat="48.59771" lon="1.95885">
        <ele>125.6</ele>
        <time>2022-10-27T09:16:16Z</time>
      </trkpt>
      <trkpt lat="48.59775" lon="1.95873">
        <ele>125.3</ele>
        <time>2022-10-27T09:16:21Z</time>
      </trkpt>
      <trkpt lat="48.59782" lon="1.95861">
        <ele>125</ele>
        <time>2022-10-27T09:16:28Z</time>
      </trkpt>
      <trkpt lat="48.59788" lon="1.95851">
        <ele>124.6</ele>
        <time>2022-10-27T09:16:34Z</time>
      </trkpt>
      <trkpt lat="48.59793" lon="1.95839">
        <ele>124.2</ele>
        <time>2022-10-27T09:16:41Z</time>
      </trkpt>
      <trkpt lat="48.59796" lon="1.95825">
        <ele>123.7</ele>
        <time>2022-10-27T09:16:49Z</time>
      </trkpt>
      <trkpt lat="48.59802" lon="1.95813">
        <ele>123.3</ele>
        <time>2022-10-27T09:16:58Z</time>
      </trkpt>
      <trkpt lat="48.59807" lon="1.95802">
        <ele>123</ele>
        <time>2022-10-27T09:17:04Z</time>
      </trkpt>
      <trkpt lat="48.59813" lon="1.9579">
        <ele>123.1</ele>
        <time>2022-10-27T09:17:09Z</time>
      </trkpt>
      <trkpt lat="48.59819" lon="1.95778">
        <ele>123</ele>
        <time>2022-10-27T09:17:16Z</time>
      </trkpt>
      <trkpt lat="48.59825" lon="1.95769">
        <ele>122.9</ele>
        <time>2022-10-27T09:17:24Z</time>
      </trkpt>
      <trkpt lat="48.59832" lon="1.95758">
        <ele>123</ele>
        <time>2022-10-27T09:17:31Z</time>
      </trkpt>
      <trkpt lat="48.59839" lon="1.95746">
        <ele>122.9</ele>
        <time>2022-10-27T09:17:38Z</time>
      </trkpt>
      <trkpt lat="48.59846" lon="1.95735">
        <ele>122.7</ele>
        <time>2022-10-27T09:17:44Z</time>
      </trkpt>
      <trkpt lat="48.59853" lon="1.95726">
        <ele>122.8</ele>
        <time>2022-10-27T09:17:52Z</time>
      </trkpt>
      <trkpt lat="48.59858" lon="1.95714">
        <ele>122.6</ele>
        <time>2022-10-27T09:17:58Z</time>
      </trkpt>
      <trkpt lat="48.59864" lon="1.95702">
        <ele>122.4</ele>
        <time>2022-10-27T09:18:07Z</time>
      </trkpt>
      <trkpt lat="48.59855" lon="1.95699">
        <ele>121.9</ele>
        <time>2022-10-27T09:18:39Z</time>
      </trkpt>
      <trkpt lat="48.59863" lon="1.95691">
        <ele>121.9</ele>
        <time>2022-10-27T09:19:44Z</time>
      </trkpt>
      <trkpt lat="48.59871" lon="1.95684">
        <ele>122.1</ele>
        <time>2022-10-27T09:20:13Z</time>
      </trkpt>
      <trkpt lat="48.59873" lon="1.9567">
        <ele>121.9</ele>
        <time>2022-10-27T09:20:23Z</time>
      </trkpt>
      <trkpt lat="48.59878" lon="1.95656">
        <ele>122</ele>
        <time>2022-10-27T09:20:29Z</time>
      </trkpt>
      <trkpt lat="48.59885" lon="1.95646">
        <ele>122.1</ele>
        <time>2022-10-27T09:20:37Z</time>
      </trkpt>
      <trkpt lat="48.59891" lon="1.95634">
        <ele>121.9</ele>
        <time>2022-10-27T09:20:45Z</time>
      </trkpt>
      <trkpt lat="48.59897" lon="1.9562">
        <ele>121.6</ele>
        <time>2022-10-27T09:20:52Z</time>
      </trkpt>
      <trkpt lat="48.59902" lon="1.95608">
        <ele>121.4</ele>
        <time>2022-10-27T09:21:02Z</time>
      </trkpt>
      <trkpt lat="48.5991" lon="1.95598">
        <ele>121.3</ele>
        <time>2022-10-27T09:21:09Z</time>
      </trkpt>
      <trkpt lat="48.59915" lon="1.95586">
        <ele>121.1</ele>
        <time>2022-10-27T09:21:16Z</time>
      </trkpt>
      <trkpt lat="48.59919" lon="1.95572">
        <ele>120.6</ele>
        <time>2022-10-27T09:21:26Z</time>
      </trkpt>
      <trkpt lat="48.59922" lon="1.95559">
        <ele>120.3</ele>
        <time>2022-10-27T09:21:33Z</time>
      </trkpt>
      <trkpt lat="48.59927" lon="1.95548">
        <ele>120.3</ele>
        <time>2022-10-27T09:21:39Z</time>
      </trkpt>
      <trkpt lat="48.59933" lon="1.95535">
        <ele>120.2</ele>
        <time>2022-10-27T09:21:45Z</time>
      </trkpt>
      <trkpt lat="48.59939" lon="1.95524">
        <ele>119.9</ele>
        <time>2022-10-27T09:21:51Z</time>
      </trkpt>
      <trkpt lat="48.59945" lon="1.95514">
        <ele>119.5</ele>
        <time>2022-10-27T09:21:57Z</time>
      </trkpt>
      <trkpt lat="48.5995" lon="1.95501">
        <ele>118.6</ele>
        <time>2022-10-27T09:22:05Z</time>
      </trkpt>
      <trkpt lat="48.59952" lon="1.95486">
        <ele>117.9</ele>
        <time>2022-10-27T09:22:11Z</time>
      </trkpt>
      <trkpt lat="48.59959" lon="1.95476">
        <ele>117.1</ele>
        <time>2022-10-27T09:22:18Z</time>
      </trkpt>
      <trkpt lat="48.59966" lon="1.95467">
        <ele>116.3</ele>
        <time>2022-10-27T09:22:26Z</time>
      </trkpt>
      <trkpt lat="48.59972" lon="1.95453">
        <ele>115.4</ele>
        <time>2022-10-27T09:22:35Z</time>
      </trkpt>
      <trkpt lat="48.59974" lon="1.95439">
        <ele>115</ele>
        <time>2022-10-27T09:22:42Z</time>
      </trkpt>
      <trkpt lat="48.5998" lon="1.95426">
        <ele>114.7</ele>
        <time>2022-10-27T09:22:48Z</time>
      </trkpt>
      <trkpt lat="48.59986" lon="1.95414">
        <ele>114.5</ele>
        <time>2022-10-27T09:22:55Z</time>
      </trkpt>
      <trkpt lat="48.59991" lon="1.95402">
        <ele>114.3</ele>
        <time>2022-10-27T09:23:05Z</time>
      </trkpt>
      <trkpt lat="48.59997" lon="1.95393">
        <ele>114.1</ele>
        <time>2022-10-27T09:23:12Z</time>
      </trkpt>
      <trkpt lat="48.60003" lon="1.95381">
        <ele>114</ele>
        <time>2022-10-27T09:23:19Z</time>
      </trkpt>
      <trkpt lat="48.60009" lon="1.95369">
        <ele>113.8</ele>
        <time>2022-10-27T09:23:27Z</time>
      </trkpt>
      <trkpt lat="48.60014" lon="1.95356">
        <ele>113.5</ele>
        <time>2022-10-27T09:23:33Z</time>
      </trkpt>
      <trkpt lat="48.6002" lon="1.95343">
        <ele>113.3</ele>
        <time>2022-10-27T09:23:40Z</time>
      </trkpt>
      <trkpt lat="48.60026" lon="1.9533">
        <ele>113.1</ele>
        <time>2022-10-27T09:23:49Z</time>
      </trkpt>
      <trkpt lat="48.60034" lon="1.95322">
        <ele>113</ele>
        <time>2022-10-27T09:23:55Z</time>
      </trkpt>
      <trkpt lat="48.60043" lon="1.95315">
        <ele>113</ele>
        <time>2022-10-27T09:24:01Z</time>
      </trkpt>
      <trkpt lat="48.6005" lon="1.95305">
        <ele>113</ele>
        <time>2022-10-27T09:24:09Z</time>
      </trkpt>
      <trkpt lat="48.60058" lon="1.95296">
        <ele>113</ele>
        <time>2022-10-27T09:24:15Z</time>
      </trkpt>
      <trkpt lat="48.60066" lon="1.95289">
        <ele>112.9</ele>
        <time>2022-10-27T09:24:35Z</time>
      </trkpt>
      <trkpt lat="48.60075" lon="1.95281">
        <ele>112.9</ele>
        <time>2022-10-27T09:24:43Z</time>
      </trkpt>
      <trkpt lat="48.60082" lon="1.9527">
        <ele>113</ele>
        <time>2022-10-27T09:24:51Z</time>
      </trkpt>
      <trkpt lat="48.60089" lon="1.95259">
        <ele>113</ele>
        <time>2022-10-27T09:24:59Z</time>
      </trkpt>
      <trkpt lat="48.60096" lon="1.95248">
        <ele>113</ele>
        <time>2022-10-27T09:25:07Z</time>
      </trkpt>
      <trkpt lat="48.60105" lon="1.95244">
        <ele>113</ele>
        <time>2022-10-27T09:25:15Z</time>
      </trkpt>
      <trkpt lat="48.60113" lon="1.95239">
        <ele>113</ele>
        <time>2022-10-27T09:25:22Z</time>
      </trkpt>
      <trkpt lat="48.60121" lon="1.9523">
        <ele>113</ele>
        <time>2022-10-27T09:25:28Z</time>
      </trkpt>
      <trkpt lat="48.60131" lon="1.95226">
        <ele>113</ele>
        <time>2022-10-27T09:25:34Z</time>
      </trkpt>
      <trkpt lat="48.6014" lon="1.95218">
        <ele>113</ele>
        <time>2022-10-27T09:25:42Z</time>
      </trkpt>
      <trkpt lat="48.60149" lon="1.95211">
        <ele>113</ele>
        <time>2022-10-27T09:25:50Z</time>
      </trkpt>
      <trkpt lat="48.60158" lon="1.95205">
        <ele>113</ele>
        <time>2022-10-27T09:25:56Z</time>
      </trkpt>
      <trkpt lat="48.60167" lon="1.95199">
        <ele>113</ele>
        <time>2022-10-27T09:26:03Z</time>
      </trkpt>
      <trkpt lat="48.60175" lon="1.95192">
        <ele>113.1</ele>
        <time>2022-10-27T09:26:11Z</time>
      </trkpt>
      <trkpt lat="48.60185" lon="1.95193">
        <ele>113</ele>
        <time>2022-10-27T09:26:17Z</time>
      </trkpt>
      <trkpt lat="48.60192" lon="1.95184">
        <ele>113.4</ele>
        <time>2022-10-27T09:26:24Z</time>
      </trkpt>
      <trkpt lat="48.60203" lon="1.95183">
        <ele>113.3</ele>
        <time>2022-10-27T09:26:32Z</time>
      </trkpt>
      <trkpt lat="48.60212" lon="1.9518">
        <ele>113.2</ele>
        <time>2022-10-27T09:26:39Z</time>
      </trkpt>
      <trkpt lat="48.60222" lon="1.95176">
        <ele>113</ele>
        <time>2022-10-27T09:26:46Z</time>
      </trkpt>
      <trkpt lat="48.6023" lon="1.95169">
        <ele>113</ele>
        <time>2022-10-27T09:26:53Z</time>
      </trkpt>
      <trkpt lat="48.60239" lon="1.95163">
        <ele>113.1</ele>
        <time>2022-10-27T09:27:00Z</time>
      </trkpt>
      <trkpt lat="48.60249" lon="1.95163">
        <ele>113</ele>
        <time>2022-10-27T09:27:07Z</time>
      </trkpt>
      <trkpt lat="48.60259" lon="1.95162">
        <ele>113</ele>
        <time>2022-10-27T09:27:13Z</time>
      </trkpt>
      <trkpt lat="48.60269" lon="1.9516">
        <ele>113</ele>
        <time>2022-10-27T09:27:20Z</time>
      </trkpt>
      <trkpt lat="48.60279" lon="1.95157">
        <ele>113</ele>
        <time>2022-10-27T09:27:27Z</time>
      </trkpt>
      <trkpt lat="48.60288" lon="1.95153">
        <ele>113</ele>
        <time>2022-10-27T09:27:34Z</time>
      </trkpt>
      <trkpt lat="48.60297" lon="1.95149">
        <ele>113</ele>
        <time>2022-10-27T09:27:41Z</time>
      </trkpt>
      <trkpt lat="48.60306" lon="1.95144">
        <ele>113</ele>
        <time>2022-10-27T09:27:49Z</time>
      </trkpt>
      <trkpt lat="48.60315" lon="1.95139">
        <ele>113</ele>
        <time>2022-10-27T09:27:59Z</time>
      </trkpt>
      <trkpt lat="48.60323" lon="1.95133">
        <ele>113</ele>
        <time>2022-10-27T09:28:05Z</time>
      </trkpt>
      <trkpt lat="48.60332" lon="1.95127">
        <ele>113</ele>
        <time>2022-10-27T09:28:12Z</time>
      </trkpt>
      <trkpt lat="48.6034" lon="1.9512">
        <ele>113</ele>
        <time>2022-10-27T09:28:18Z</time>
      </trkpt>
      <trkpt lat="48.60349" lon="1.95117">
        <ele>113</ele>
        <time>2022-10-27T09:28:26Z</time>
      </trkpt>
      <trkpt lat="48.60357" lon="1.95112">
        <ele>113</ele>
        <time>2022-10-27T09:28:34Z</time>
      </trkpt>
      <trkpt lat="48.60365" lon="1.95104">
        <ele>113</ele>
        <time>2022-10-27T09:28:42Z</time>
      </trkpt>
      <trkpt lat="48.60374" lon="1.95099">
        <ele>113</ele>
        <time>2022-10-27T09:28:49Z</time>
      </trkpt>
      <trkpt lat="48.60382" lon="1.9509">
        <ele>113</ele>
        <time>2022-10-27T09:28:56Z</time>
      </trkpt>
      <trkpt lat="48.6039" lon="1.95093">
        <ele>113</ele>
        <time>2022-10-27T09:29:06Z</time>
      </trkpt>
      <trkpt lat="48.60399" lon="1.95089">
        <ele>113</ele>
        <time>2022-10-27T09:29:13Z</time>
      </trkpt>
      <trkpt lat="48.60407" lon="1.95081">
        <ele>113</ele>
        <time>2022-10-27T09:29:19Z</time>
      </trkpt>
      <trkpt lat="48.60416" lon="1.95074">
        <ele>113</ele>
        <time>2022-10-27T09:29:26Z</time>
      </trkpt>
      <trkpt lat="48.60425" lon="1.95067">
        <ele>112.9</ele>
        <time>2022-10-27T09:29:35Z</time>
      </trkpt>
      <trkpt lat="48.60434" lon="1.95063">
        <ele>112.8</ele>
        <time>2022-10-27T09:29:42Z</time>
      </trkpt>
      <trkpt lat="48.60443" lon="1.95059">
        <ele>112.9</ele>
        <time>2022-10-27T09:29:49Z</time>
      </trkpt>
      <trkpt lat="48.60452" lon="1.95055">
        <ele>112.7</ele>
        <time>2022-10-27T09:29:58Z</time>
      </trkpt>
      <trkpt lat="48.60461" lon="1.95051">
        <ele>112.4</ele>
        <time>2022-10-27T09:30:05Z</time>
      </trkpt>
      <trkpt lat="48.6047" lon="1.95044">
        <ele>112.1</ele>
        <time>2022-10-27T09:30:12Z</time>
      </trkpt>
      <trkpt lat="48.60479" lon="1.95039">
        <ele>112</ele>
        <time>2022-10-27T09:30:19Z</time>
      </trkpt>
      <trkpt lat="48.60488" lon="1.95043">
        <ele>112</ele>
        <time>2022-10-27T09:30:28Z</time>
      </trkpt>
      <trkpt lat="48.60497" lon="1.95048">
        <ele>112</ele>
        <time>2022-10-27T09:30:36Z</time>
      </trkpt>
      <trkpt lat="48.60505" lon="1.95053">
        <ele>112</ele>
        <time>2022-10-27T09:30:43Z</time>
      </trkpt>
      <trkpt lat="48.60514" lon="1.95051">
        <ele>112</ele>
        <time>2022-10-27T09:30:50Z</time>
      </trkpt>
      <trkpt lat="48.60521" lon="1.95061">
        <ele>112</ele>
        <time>2022-10-27T09:30:57Z</time>
      </trkpt>
      <trkpt lat="48.60527" lon="1.95072">
        <ele>112</ele>
        <time>2022-10-27T09:31:03Z</time>
      </trkpt>
      <trkpt lat="48.60534" lon="1.95082">
        <ele>111.8</ele>
        <time>2022-10-27T09:31:10Z</time>
      </trkpt>
      <trkpt lat="48.60536" lon="1.95097">
        <ele>111.7</ele>
        <time>2022-10-27T09:31:17Z</time>
      </trkpt>
      <trkpt lat="48.6054" lon="1.95111">
        <ele>111.6</ele>
        <time>2022-10-27T09:31:24Z</time>
      </trkpt>
      <trkpt lat="48.60549" lon="1.95117">
        <ele>111.2</ele>
        <time>2022-10-27T09:31:31Z</time>
      </trkpt>
      <trkpt lat="48.60556" lon="1.95125">
        <ele>111</ele>
        <time>2022-10-27T09:31:39Z</time>
      </trkpt>
      <trkpt lat="48.60562" lon="1.95136">
        <ele>111</ele>
        <time>2022-10-27T09:31:45Z</time>
      </trkpt>
      <trkpt lat="48.60571" lon="1.95141">
        <ele>111</ele>
        <time>2022-10-27T09:31:53Z</time>
      </trkpt>
      <trkpt lat="48.60579" lon="1.95148">
        <ele>111</ele>
        <time>2022-10-27T09:32:03Z</time>
      </trkpt>
      <trkpt lat="48.60585" lon="1.95137">
        <ele>111</ele>
        <time>2022-10-27T09:32:32Z</time>
      </trkpt>
      <trkpt lat="48.6059" lon="1.95125">
        <ele>111</ele>
        <time>2022-10-27T09:32:47Z</time>
      </trkpt>
      <trkpt lat="48.60594" lon="1.95112">
        <ele>111</ele>
        <time>2022-10-27T09:32:59Z</time>
      </trkpt>
      <trkpt lat="48.60601" lon="1.95101">
        <ele>111</ele>
        <time>2022-10-27T09:33:05Z</time>
      </trkpt>
      <trkpt lat="48.60608" lon="1.9509">
        <ele>111</ele>
        <time>2022-10-27T09:33:10Z</time>
      </trkpt>
      <trkpt lat="48.60615" lon="1.9508">
        <ele>111</ele>
        <time>2022-10-27T09:33:15Z</time>
      </trkpt>
      <trkpt lat="48.60622" lon="1.9507">
        <ele>111</ele>
        <time>2022-10-27T09:33:22Z</time>
      </trkpt>
      <trkpt lat="48.60627" lon="1.95059">
        <ele>111</ele>
        <time>2022-10-27T09:33:27Z</time>
      </trkpt>
      <trkpt lat="48.60634" lon="1.95047">
        <ele>111</ele>
        <time>2022-10-27T09:33:35Z</time>
      </trkpt>
      <trkpt lat="48.60641" lon="1.95036">
        <ele>111</ele>
        <time>2022-10-27T09:33:42Z</time>
      </trkpt>
      <trkpt lat="48.60646" lon="1.95025">
        <ele>111</ele>
        <time>2022-10-27T09:33:47Z</time>
      </trkpt>
      <trkpt lat="48.60653" lon="1.95015">
        <ele>111</ele>
        <time>2022-10-27T09:33:54Z</time>
      </trkpt>
      <trkpt lat="48.60658" lon="1.95002">
        <ele>111</ele>
        <time>2022-10-27T09:34:01Z</time>
      </trkpt>
      <trkpt lat="48.60665" lon="1.94991">
        <ele>111</ele>
        <time>2022-10-27T09:34:12Z</time>
      </trkpt>
      <trkpt lat="48.60668" lon="1.94979">
        <ele>111</ele>
        <time>2022-10-27T09:34:23Z</time>
      </trkpt>
    </trkseg>
  </trk>
</gpx>